Wetterdaten: Dienstag, 25.04.2023
Datum Zeit Temp. Aussen Temp. o. S. Temp +5cm Feuchte Auss Luftdruck Regen Sonnenschein Regendauer Solar Windben Empfang
25.04.2023 00:00 6,8 C 6,1 C 2,8 C 86 % 1010,7 hPa 0,0 l/m 0 min 0 min 0 W/m 3,2 km/h (1 Bft) 100,00 %
25.04.2023 00:02 6,8 C 6,1 C 2,8 C 86 % 1010,7 hPa 0,0 l/m 0 min 0 min 0 W/m 9,7 km/h (2 Bft) 97,22 %
25.04.2023 00:04 6,8 C 6,1 C 2,8 C 86 % 1010,8 hPa 0,0 l/m 0 min 0 min 0 W/m 3,2 km/h (1 Bft) 100,00 %
25.04.2023 00:07 6,7 C 6,1 C 2,8 C 87 % 1010,7 hPa 0,0 l/m 0 min 0 min 0 W/m 6,4 km/h (2 Bft) 98,63 %
25.04.2023 00:08 6,7 C 5,6 C 2,8 C 87 % 1010,7 hPa 0,0 l/m 0 min 0 min 0 W/m 3,2 km/h (1 Bft) 100,00 %
25.04.2023 00:10 6,7 C 6,1 C 2,8 C 86 % 1010,8 hPa 0,0 l/m 0 min 0 min 0 W/m 3,2 km/h (1 Bft) 97,87 %
25.04.2023 00:12 6,7 C 6,1 C 2,8 C 87 % 1010,7 hPa 0,0 l/m 0 min 0 min 0 W/m 6,4 km/h (2 Bft) 100,00 %
25.04.2023 00:14 6,7 C 5,6 C 2,8 C 87 % 1010,7 hPa 0,0 l/m 0 min 0 min 0 W/m 3,2 km/h (1 Bft) 97,14 %
25.04.2023 00:16 6,7 C 5,6 C 2,8 C 86 % 1010,7 hPa 0,0 l/m 0 min 0 min 0 W/m 6,4 km/h (2 Bft) 100,00 %
25.04.2023 00:18 6,7 C 5,6 C 2,8 C 87 % 1010,7 hPa 0,0 l/m 0 min 0 min 0 W/m 3,2 km/h (1 Bft) 100,00 %
25.04.2023 00:20 6,6 C 6,1 C 2,8 C 87 % 1010,8 hPa 0,0 l/m 0 min 0 min 0 W/m 6,4 km/h (2 Bft) 97,83 %
25.04.2023 00:22 6,6 C 5,6 C 2,8 C 87 % 1010,7 hPa 0,0 l/m 0 min 0 min 0 W/m 3,2 km/h (1 Bft) 100,00 %
25.04.2023 00:24 6,6 C 5,6 C 2,8 C 87 % 1010,7 hPa 0,0 l/m 0 min 0 min 0 W/m 3,2 km/h (1 Bft) 95,74 %
25.04.2023 00:26 6,6 C 5,6 C 2,8 C 87 % 1010,7 hPa 0,0 l/m 0 min 0 min 0 W/m 12,9 km/h (3 Bft) 95,65 %
25.04.2023 00:28 6,6 C 5,6 C 2,8 C 87 % 1010,7 hPa 0,0 l/m 0 min 0 min 0 W/m 12,9 km/h (3 Bft) 93,62 %
25.04.2023 00:30 6,6 C 6,1 C 2,8 C 87 % 1010,7 hPa 0,0 l/m 0 min 0 min 0 W/m 6,4 km/h (2 Bft) 95,74 %
25.04.2023 00:32 6,6 C 6,1 C 2,8 C 87 % 1010,7 hPa 0,0 l/m 0 min 0 min 0 W/m 6,4 km/h (2 Bft) 91,49 %
25.04.2023 00:34 6,6 C 6,1 C 2,8 C 87 % 1010,7 hPa 0,0 l/m 0 min 0 min 0 W/m 6,4 km/h (2 Bft) 94,34 %
25.04.2023 00:36 6,6 C 6,1 C 2,8 C 87 % 1010,7 hPa 0,0 l/m 0 min 0 min 0 W/m 6,4 km/h (2 Bft) 95,74 %
25.04.2023 00:38 6,6 C 6,1 C 2,8 C 87 % 1010,7 hPa 0,0 l/m 0 min 0 min 0 W/m 3,2 km/h (1 Bft) 93,62 %
25.04.2023 00:40 6,6 C 6,1 C 2,8 C 87 % 1010,7 hPa 0,0 l/m 0 min 0 min 0 W/m 12,9 km/h (3 Bft) 93,62 %
25.04.2023 00:42 6,5 C 5,6 C 2,8 C 87 % 1010,7 hPa 0,0 l/m 0 min 0 min 0 W/m 6,4 km/h (2 Bft) 94,00 %
25.04.2023 00:44 6,5 C 5,6 C 2,8 C 87 % 1010,6 hPa 0,0 l/m 0 min 0 min 0 W/m 12,9 km/h (3 Bft) 93,88 %
25.04.2023 00:46 6,5 C 5,6 C 2,8 C 87 % 1010,6 hPa 0,0 l/m 0 min 0 min 0 W/m 6,4 km/h (2 Bft) 93,62 %
25.04.2023 00:48 6,5 C 5,6 C 2,8 C 87 % 1010,7 hPa 0,0 l/m 0 min 0 min 0 W/m 6,4 km/h (2 Bft) 95,74 %
25.04.2023 00:50 6,5 C 5,6 C 2,8 C 87 % 1010,7 hPa 0,0 l/m 0 min 0 min 0 W/m 6,4 km/h (2 Bft) 91,30 %
25.04.2023 00:52 6,5 C 5,6 C 2,8 C 87 % 1010,7 hPa 0,0 l/m 0 min 0 min 0 W/m 3,2 km/h (1 Bft) 95,74 %
25.04.2023 00:54 6,5 C 5,6 C 2,8 C 87 % 1010,7 hPa 0,0 l/m 0 min 0 min 0 W/m 6,4 km/h (2 Bft) 91,43 %
25.04.2023 00:56 6,5 C 5,6 C 2,8 C 87 % 1010,7 hPa 0,0 l/m 0 min 0 min 0 W/m 6,4 km/h (2 Bft) 95,74 %
25.04.2023 00:58 6,5 C 5,6 C 2,8 C 87 % 1010,7 hPa 0,0 l/m 0 min 0 min 0 W/m 9,7 km/h (2 Bft) 95,74 %
25.04.2023 01:00 6,4 C 5,6 C 2,8 C 87 % 1010,7 hPa 0,0 l/m 0 min 0 min 0 W/m 6,4 km/h (2 Bft) 95,74 %
25.04.2023 01:02 6,4 C 5,6 C 2,8 C 87 % 1010,7 hPa 0,0 l/m 0 min 0 min 0 W/m 6,4 km/h (2 Bft) 97,87 %
25.04.2023 01:04 6,4 C 5,6 C 2,8 C 87 % 1010,7 hPa 0,0 l/m 0 min 0 min 0 W/m 6,4 km/h (2 Bft) 97,96 %
25.04.2023 01:06 6,4 C 5,6 C 2,8 C 87 % 1010,7 hPa 0,0 l/m 0 min 0 min 0 W/m 3,2 km/h (1 Bft) 93,10 %
25.04.2023 01:08 6,4 C 5,6 C 2,8 C 87 % 1010,7 hPa 0,0 l/m 0 min 0 min 0 W/m 6,4 km/h (2 Bft) 100,00 %
25.04.2023 01:10 6,4 C 5,6 C 2,8 C 87 % 1010,8 hPa 0,0 l/m 0 min 0 min 0 W/m 6,4 km/h (2 Bft) 93,62 %
25.04.2023 01:12 6,4 C 5,6 C 2,8 C 87 % 1010,8 hPa 0,0 l/m 0 min 0 min 0 W/m 3,2 km/h (1 Bft) 97,87 %
25.04.2023 01:14 6,4 C 5,6 C 2,8 C 87 % 1010,8 hPa 0,0 l/m 0 min 0 min 0 W/m 3,2 km/h (1 Bft) 97,87 %
25.04.2023 01:16 6,4 C 5,6 C 2,8 C 87 % 1010,7 hPa 0,0 l/m 0 min 0 min 0 W/m 3,2 km/h (1 Bft) 97,87 %
25.04.2023 01:18 6,3 C 5,6 C 2,2 C 87 % 1010,7 hPa 0,0 l/m 0 min 0 min 0 W/m 6,4 km/h (2 Bft) 97,87 %
25.04.2023 01:20 6,3 C 5,6 C 2,2 C 87 % 1010,8 hPa 0,0 l/m 0 min 0 min 0 W/m 6,4 km/h (2 Bft) 97,83 %
25.04.2023 01:22 6,3 C 5,6 C 2,2 C 87 % 1010,7 hPa 0,0 l/m 0 min 0 min 0 W/m 6,4 km/h (2 Bft) 97,87 %
25.04.2023 01:24 6,3 C 5,6 C 2,2 C 88 % 1010,7 hPa 0,0 l/m 0 min 0 min 0 W/m 3,2 km/h (1 Bft) 97,87 %
25.04.2023 01:26 6,3 C 5,6 C 2,2 C 88 % 1010,7 hPa 0,0 l/m 0 min 0 min 0 W/m 3,2 km/h (1 Bft) 93,62 %
25.04.2023 01:28 6,3 C 5,6 C 2,2 C 88 % 1010,8 hPa 0,0 l/m 0 min 0 min 0 W/m 6,4 km/h (2 Bft) 93,62 %
25.04.2023 01:30 6,2 C 5,6 C 2,2 C 87 % 1010,8 hPa 0,0 l/m 0 min 0 min 0 W/m 6,4 km/h (2 Bft) 95,74 %
25.04.2023 01:32 6,2 C 5,6 C 2,2 C 88 % 1010,7 hPa 0,0 l/m 0 min 0 min 0 W/m 6,4 km/h (2 Bft) 97,87 %
25.04.2023 01:34 6,2 C 5,6 C 2,2 C 88 % 1010,7 hPa 0,0 l/m 0 min 0 min 0 W/m 12,9 km/h (3 Bft) 97,83 %
25.04.2023 01:36 6,2 C 5,6 C 2,2 C 88 % 1010,8 hPa 0,0 l/m 0 min 0 min 0 W/m 6,4 km/h (2 Bft) 97,87 %
25.04.2023 01:38 6,2 C 5,6 C 2,2 C 88 % 1010,7 hPa 0,0 l/m 0 min 0 min 0 W/m 12,9 km/h (3 Bft) 97,87 %
25.04.2023 01:40 6,2 C 5,6 C 2,2 C 88 % 1010,7 hPa 0,0 l/m 0 min 0 min 0 W/m 6,4 km/h (2 Bft) 97,87 %
25.04.2023 01:42 6,2 C 5,6 C 2,2 C 88 % 1010,8 hPa 0,0 l/m 0 min 0 min 0 W/m 12,9 km/h (3 Bft) 95,74 %
25.04.2023 01:44 6,2 C 5,6 C 2,2 C 88 % 1010,8 hPa 0,0 l/m 0 min 0 min 0 W/m 6,4 km/h (2 Bft) 100,00 %
25.04.2023 01:46 6,2 C 5,6 C 2,2 C 88 % 1010,8 hPa 0,0 l/m 0 min 0 min 0 W/m 3,2 km/h (1 Bft) 100,00 %
25.04.2023 01:48 6,2 C 5,6 C 2,2 C 88 % 1010,8 hPa 0,0 l/m 0 min 0 min 0 W/m 12,9 km/h (3 Bft) 97,87 %
25.04.2023 01:50 6,2 C 5,6 C 2,2 C 88 % 1010,8 hPa 0,0 l/m 0 min 0 min 0 W/m 9,7 km/h (2 Bft) 97,87 %
25.04.2023 01:52 6,2 C 5,6 C 2,2 C 88 % 1010,7 hPa 0,0 l/m 0 min 0 min 0 W/m 6,4 km/h (2 Bft) 100,00 %
25.04.2023 01:54 6,2 C 5,6 C 2,8 C 88 % 1010,7 hPa 0,0 l/m 0 min 0 min 0 W/m 6,4 km/h (2 Bft) 97,87 %
25.04.2023 01:56 6,3 C 5,6 C 2,8 C 89 % 1010,8 hPa 0,0 l/m 0 min 0 min 0 W/m 6,4 km/h (2 Bft) 97,87 %
25.04.2023 01:58 6,3 C 6,1 C 2,8 C 89 % 1010,8 hPa 0,0 l/m 0 min 0 min 0 W/m 6,4 km/h (2 Bft) 97,87 %
25.04.2023 02:00 6,3 C 5,6 C 2,8 C 89 % 1010,7 hPa 0,0 l/m 0 min 0 min 0 W/m 6,4 km/h (2 Bft) 95,83 %
25.04.2023 02:02 6,3 C 5,6 C 2,8 C 89 % 1010,8 hPa 0,0 l/m 0 min 0 min 0 W/m 6,4 km/h (2 Bft) 97,83 %
25.04.2023 02:04 6,3 C 5,6 C 2,8 C 89 % 1010,8 hPa 0,0 l/m 0 min 0 min 0 W/m 3,2 km/h (1 Bft) 95,74 %
25.04.2023 02:06 6,3 C 6,1 C 2,8 C 89 % 1010,8 hPa 0,0 l/m 0 min 0 min 0 W/m 3,2 km/h (1 Bft) 97,87 %
25.04.2023 02:08 6,4 C 6,1 C 2,8 C 89 % 1010,8 hPa 0,0 l/m 0 min 0 min 0 W/m 6,4 km/h (2 Bft) 97,87 %
25.04.2023 02:10 6,4 C 6,1 C 2,8 C 89 % 1010,7 hPa 0,0 l/m 0 min 0 min 0 W/m 9,7 km/h (2 Bft) 95,74 %
25.04.2023 02:14 6,4 C 6,1 C 2,8 C 89 % 1010,8 hPa 0,0 l/m 0 min 0 min 0 W/m 3,2 km/h (1 Bft) 100,00 %
25.04.2023 02:16 6,4 C 6,1 C 2,8 C 89 % 1010,7 hPa 0,0 l/m 0 min 0 min 0 W/m 3,2 km/h (1 Bft) 95,83 %
25.04.2023 02:18 6,4 C 6,1 C 2,8 C 89 % 1010,8 hPa 0,0 l/m 0 min 0 min 0 W/m 6,4 km/h (2 Bft) 100,00 %
25.04.2023 02:20 6,5 C 6,1 C 2,8 C 89 % 1010,9 hPa 0,0 l/m 0 min 0 min 0 W/m 6,4 km/h (2 Bft) 100,00 %
25.04.2023 02:22 6,5 C 6,1 C 2,8 C 88 % 1010,9 hPa 0,0 l/m 0 min 0 min 0 W/m 6,4 km/h (2 Bft) 100,00 %
25.04.2023 02:27 6,5 C 6,1 C 2,8 C 89 % 1010,9 hPa 0,0 l/m 0 min 0 min 0 W/m 6,4 km/h (2 Bft) 98,70 %
25.04.2023 02:28 6,5 C 6,1 C 2,8 C 89 % 1010,9 hPa 0,0 l/m 0 min 0 min 0 W/m 9,7 km/h (2 Bft) 100,00 %
25.04.2023 02:30 6,5 C 6,1 C 2,8 C 89 % 1010,9 hPa 0,0 l/m 0 min 0 min 0 W/m 9,7 km/h (2 Bft) 97,87 %
25.04.2023 02:32 6,6 C 6,1 C 2,8 C 89 % 1010,9 hPa 0,0 l/m 0 min 0 min 0 W/m 6,4 km/h (2 Bft) 95,74 %
25.04.2023 02:34 6,6 C 6,1 C 2,8 C 89 % 1010,9 hPa 0,0 l/m 0 min 0 min 0 W/m 6,4 km/h (2 Bft) 100,00 %
25.04.2023 02:36 6,6 C 6,1 C 2,8 C 89 % 1010,9 hPa 0,0 l/m 0 min 0 min 0 W/m 6,4 km/h (2 Bft) 100,00 %
25.04.2023 02:38 6,6 C 6,1 C 2,8 C 89 % 1011,0 hPa 0,0 l/m 0 min 0 min 0 W/m 9,7 km/h (2 Bft) 100,00 %
25.04.2023 02:40 6,6 C 6,1 C 2,8 C 89 % 1010,9 hPa 0,0 l/m 0 min 0 min 0 W/m 6,4 km/h (2 Bft) 100,00 %
25.04.2023 02:42 6,6 C 6,1 C 2,8 C 89 % 1010,9 hPa 0,0 l/m 0 min 0 min 0 W/m 9,7 km/h (2 Bft) 97,87 %
25.04.2023 02:44 6,6 C 6,1 C 2,8 C 88 % 1011,0 hPa 0,0 l/m 0 min 0 min 0 W/m 12,9 km/h (3 Bft) 100,00 %
25.04.2023 02:46 6,6 C 6,1 C 2,8 C 88 % 1011,0 hPa 0,0 l/m 0 min 0 min 0 W/m 6,4 km/h (2 Bft) 97,87 %
25.04.2023 02:48 6,6 C 6,1 C 2,8 C 88 % 1010,9 hPa 0,0 l/m 0 min 0 min 0 W/m 9,7 km/h (2 Bft) 95,65 %
25.04.2023 02:50 6,6 C 6,1 C 2,8 C 88 % 1010,9 hPa 0,0 l/m 0 min 0 min 0 W/m 6,4 km/h (2 Bft) 95,74 %
25.04.2023 02:52 6,6 C 6,1 C 2,8 C 88 % 1010,9 hPa 0,0 l/m 0 min 0 min 0 W/m 9,7 km/h (2 Bft) 96,00 %
25.04.2023 02:54 6,6 C 6,1 C 2,8 C 88 % 1010,9 hPa 0,0 l/m 0 min 0 min 0 W/m 12,9 km/h (3 Bft) 97,87 %
25.04.2023 02:56 6,6 C 6,1 C 2,8 C 88 % 1010,9 hPa 0,0 l/m 0 min 0 min 0 W/m 6,4 km/h (2 Bft) 97,87 %
25.04.2023 02:58 6,6 C 6,1 C 2,8 C 88 % 1011,0 hPa 0,0 l/m 0 min 0 min 0 W/m 6,4 km/h (2 Bft) 97,87 %
25.04.2023 03:00 6,6 C 6,1 C 2,8 C 88 % 1010,9 hPa 0,0 l/m 0 min 0 min 0 W/m 9,7 km/h (2 Bft) 97,92 %
25.04.2023 03:02 6,6 C 6,1 C 2,8 C 88 % 1010,9 hPa 0,0 l/m 0 min 0 min 0 W/m 9,7 km/h (2 Bft) 97,92 %
25.04.2023 03:04 6,6 C 6,1 C 2,8 C 88 % 1010,9 hPa 0,0 l/m 0 min 0 min 0 W/m 6,4 km/h (2 Bft) 97,92 %
25.04.2023 03:06 6,6 C 6,1 C 2,8 C 88 % 1010,9 hPa 0,0 l/m 0 min 0 min 0 W/m 6,4 km/h (2 Bft) 97,87 %
25.04.2023 03:08 6,6 C 6,1 C 2,8 C 89 % 1011,0 hPa 0,0 l/m 0 min 0 min 0 W/m 12,9 km/h (3 Bft) 97,87 %
25.04.2023 03:10 6,6 C 6,1 C 2,8 C 89 % 1010,9 hPa 0,0 l/m 0 min 0 min 0 W/m 6,4 km/h (2 Bft) 97,87 %
25.04.2023 03:12 6,6 C 6,1 C 2,8 C 89 % 1010,9 hPa 0,0 l/m 0 min 0 min 0 W/m 9,7 km/h (2 Bft) 94,59 %
25.04.2023 03:14 6,6 C 6,1 C 2,8 C 89 % 1010,9 hPa 0,0 l/m 0 min 0 min 0 W/m 16,1 km/h (3 Bft) 97,87 %
25.04.2023 03:16 6,6 C 6,1 C 2,8 C 89 % 1010,9 hPa 0,0 l/m 0 min 0 min 0 W/m 6,4 km/h (2 Bft) 95,65 %
25.04.2023 03:18 6,6 C 6,1 C 2,8 C 88 % 1011,0 hPa 0,0 l/m 0 min 0 min 0 W/m 16,1 km/h (3 Bft) 97,87 %
25.04.2023 03:20 6,6 C 5,6 C 2,8 C 88 % 1010,9 hPa 0,0 l/m 0 min 0 min 0 W/m 12,9 km/h (3 Bft) 97,87 %
25.04.2023 03:22 6,5 C 5,6 C 2,8 C 88 % 1011,0 hPa 0,0 l/m 0 min 0 min 0 W/m 6,4 km/h (2 Bft) 97,87 %
25.04.2023 03:24 6,5 C 5,6 C 2,8 C 89 % 1011,0 hPa 0,0 l/m 0 min 0 min 0 W/m 9,7 km/h (2 Bft) 95,74 %
25.04.2023 03:26 6,5 C 5,6 C 2,8 C 89 % 1011,0 hPa 0,0 l/m 0 min 0 min 0 W/m 9,7 km/h (2 Bft) 97,87 %
25.04.2023 03:28 6,5 C 5,6 C 2,8 C 89 % 1010,9 hPa 0,0 l/m 0 min 0 min 0 W/m 6,4 km/h (2 Bft) 100,00 %
25.04.2023 03:30 6,5 C 6,1 C 2,8 C 89 % 1010,9 hPa 0,0 l/m 0 min 0 min 0 W/m 6,4 km/h (2 Bft) 97,83 %
25.04.2023 03:32 6,5 C 6,1 C 2,8 C 89 % 1011,0 hPa 0,0 l/m 0 min 0 min 0 W/m 9,7 km/h (2 Bft) 97,87 %
25.04.2023 03:34 6,5 C 6,1 C 2,8 C 89 % 1011,0 hPa 0,0 l/m 0 min 0 min 0 W/m 9,7 km/h (2 Bft) 100,00 %
25.04.2023 03:36 6,5 C 6,1 C 2,8 C 89 % 1011,0 hPa 0,0 l/m 0 min 0 min 0 W/m 12,9 km/h (3 Bft) 97,87 %
25.04.2023 03:38 6,5 C 6,1 C 2,8 C 89 % 1011,0 hPa 0,0 l/m 0 min 0 min 0 W/m 12,9 km/h (3 Bft) 100,00 %
25.04.2023 03:40 6,6 C 6,1 C 2,8 C 89 % 1011,0 hPa 0,0 l/m 0 min 0 min 0 W/m 16,1 km/h (3 Bft) 97,87 %
25.04.2023 03:42 6,6 C 6,1 C 2,8 C 89 % 1011,0 hPa 0,0 l/m 0 min 0 min 0 W/m 12,9 km/h (3 Bft) 100,00 %
25.04.2023 03:44 6,6 C 6,1 C 2,8 C 89 % 1011,1 hPa 0,0 l/m 0 min 0 min 0 W/m 12,9 km/h (3 Bft) 97,87 %
25.04.2023 03:46 6,6 C 6,1 C 2,8 C 89 % 1011,1 hPa 0,0 l/m 0 min 0 min 0 W/m 9,7 km/h (2 Bft) 98,18 %
25.04.2023 03:48 6,6 C 6,1 C 2,8 C 89 % 1011,1 hPa 0,0 l/m 0 min 0 min 0 W/m 9,7 km/h (2 Bft) 95,74 %
25.04.2023 03:50 6,6 C 6,1 C 2,8 C 89 % 1011,1 hPa 0,0 l/m 0 min 0 min 0 W/m 9,7 km/h (2 Bft) 97,87 %
25.04.2023 03:52 6,6 C 6,1 C 2,8 C 89 % 1011,2 hPa 0,0 l/m 0 min 0 min 0 W/m 6,4 km/h (2 Bft) 97,87 %
25.04.2023 03:54 6,6 C 6,1 C 2,8 C 89 % 1011,2 hPa 0,0 l/m 0 min 0 min 0 W/m 9,7 km/h (2 Bft) 97,37 %
25.04.2023 03:56 6,6 C 6,1 C 2,8 C 89 % 1011,3 hPa 0,0 l/m 0 min 0 min 0 W/m 9,7 km/h (2 Bft) 95,74 %
25.04.2023 03:58 6,6 C 6,1 C 2,8 C 89 % 1011,3 hPa 0,0 l/m 0 min 0 min 0 W/m 6,4 km/h (2 Bft) 97,87 %
25.04.2023 04:00 6,6 C 6,1 C 2,8 C 89 % 1011,3 hPa 0,0 l/m 0 min 0 min 0 W/m 6,4 km/h (2 Bft) 97,87 %
25.04.2023 04:02 6,6 C 6,1 C 2,8 C 89 % 1011,3 hPa 0,0 l/m 0 min 0 min 0 W/m 9,7 km/h (2 Bft) 95,74 %
25.04.2023 04:04 6,6 C 6,1 C 2,8 C 89 % 1011,2 hPa 0,0 l/m 0 min 0 min 0 W/m 9,7 km/h (2 Bft) 92,00 %
25.04.2023 04:06 6,6 C 6,1 C 2,8 C 89 % 1011,3 hPa 0,0 l/m 0 min 0 min 0 W/m 6,4 km/h (2 Bft) 95,74 %
25.04.2023 04:08 6,6 C 6,1 C 2,8 C 89 % 1011,2 hPa 0,0 l/m 0 min 0 min 0 W/m 6,4 km/h (2 Bft) 95,65 %
25.04.2023 04:10 6,6 C 6,1 C 2,8 C 89 % 1011,3 hPa 0,0 l/m 0 min 0 min 0 W/m 9,7 km/h (2 Bft) 95,74 %
25.04.2023 04:12 6,6 C 6,1 C 2,8 C 89 % 1011,2 hPa 0,0 l/m 0 min 0 min 0 W/m 6,4 km/h (2 Bft) 93,62 %
25.04.2023 04:14 6,6 C 6,1 C 2,8 C 89 % 1011,2 hPa 0,0 l/m 0 min 0 min 0 W/m 9,7 km/h (2 Bft) 98,00 %
25.04.2023 04:16 6,6 C 6,1 C 2,8 C 89 % 1011,2 hPa 0,0 l/m 0 min 0 min 0 W/m 6,4 km/h (2 Bft) 95,83 %
25.04.2023 04:18 6,6 C 6,1 C 2,8 C 89 % 1011,2 hPa 0,0 l/m 0 min 0 min 0 W/m 6,4 km/h (2 Bft) 95,74 %
25.04.2023 04:20 6,6 C 6,1 C 2,8 C 89 % 1011,2 hPa 0,0 l/m 0 min 0 min 0 W/m 6,4 km/h (2 Bft) 95,65 %
25.04.2023 04:22 6,6 C 6,1 C 2,8 C 89 % 1011,2 hPa 0,0 l/m 0 min 0 min 0 W/m 9,7 km/h (2 Bft) 97,87 %
25.04.2023 04:24 6,6 C 5,6 C 2,8 C 89 % 1011,2 hPa 0,0 l/m 0 min 0 min 0 W/m 12,9 km/h (3 Bft) 95,74 %
25.04.2023 04:26 6,5 C 5,6 C 2,8 C 89 % 1011,3 hPa 0,0 l/m 0 min 0 min 0 W/m 6,4 km/h (2 Bft) 97,87 %
25.04.2023 04:28 6,5 C 5,6 C 2,8 C 89 % 1011,3 hPa 0,0 l/m 0 min 0 min 0 W/m 3,2 km/h (1 Bft) 97,87 %
25.04.2023 04:30 6,5 C 5,6 C 2,2 C 89 % 1011,2 hPa 0,0 l/m 0 min 0 min 0 W/m 6,4 km/h (2 Bft) 97,87 %
25.04.2023 04:32 6,4 C 5,6 C 2,2 C 89 % 1011,3 hPa 0,0 l/m 0 min 0 min 0 W/m 9,7 km/h (2 Bft) 97,87 %
25.04.2023 04:34 6,4 C 5,6 C 2,2 C 89 % 1011,3 hPa 0,0 l/m 0 min 0 min 0 W/m 6,4 km/h (2 Bft) 94,29 %
25.04.2023 04:36 6,4 C 5,6 C 2,2 C 89 % 1011,2 hPa 0,0 l/m 0 min 0 min 0 W/m 3,2 km/h (1 Bft) 97,87 %
25.04.2023 04:38 6,4 C 5,6 C 2,2 C 89 % 1011,3 hPa 0,0 l/m 0 min 0 min 0 W/m 6,4 km/h (2 Bft) 97,83 %
25.04.2023 04:40 6,3 C 5,6 C 2,2 C 89 % 1011,3 hPa 0,0 l/m 0 min 0 min 0 W/m 9,7 km/h (2 Bft) 96,61 %
25.04.2023 04:42 6,3 C 5,6 C 2,2 C 89 % 1011,3 hPa 0,0 l/m 0 min 0 min 0 W/m 6,4 km/h (2 Bft) 97,14 %
25.04.2023 04:44 6,3 C 5,6 C 2,2 C 89 % 1011,3 hPa 0,0 l/m 0 min 0 min 0 W/m 6,4 km/h (2 Bft) 98,21 %
25.04.2023 04:46 6,3 C 5,6 C 2,2 C 89 % 1011,3 hPa 0,0 l/m 0 min 0 min 0 W/m 6,4 km/h (2 Bft) 97,92 %
25.04.2023 04:48 6,3 C 5,6 C 2,2 C 89 % 1011,3 hPa 0,0 l/m 0 min 0 min 0 W/m 6,4 km/h (2 Bft) 97,83 %
25.04.2023 04:50 6,3 C 5,6 C 2,2 C 89 % 1011,3 hPa 0,0 l/m 0 min 0 min 0 W/m 3,2 km/h (1 Bft) 97,92 %
25.04.2023 04:52 6,3 C 5,6 C 2,2 C 89 % 1011,3 hPa 0,0 l/m 0 min 0 min 0 W/m 6,4 km/h (2 Bft) 95,74 %
25.04.2023 04:54 6,2 C 5,6 C 2,2 C 90 % 1011,3 hPa 0,0 l/m 0 min 0 min 0 W/m 6,4 km/h (2 Bft) 97,92 %
25.04.2023 04:56 6,2 C 5,6 C 2,2 C 90 % 1011,3 hPa 0,0 l/m 0 min 0 min 0 W/m 9,7 km/h (2 Bft) 94,29 %
25.04.2023 04:58 6,2 C 5,6 C 2,2 C 90 % 1011,3 hPa 0,0 l/m 0 min 0 min 0 W/m 9,7 km/h (2 Bft) 98,31 %
25.04.2023 05:00 6,2 C 5,0 C 2,2 C 90 % 1011,3 hPa 0,0 l/m 0 min 0 min 0 W/m 6,4 km/h (2 Bft) 41,18 %
25.04.2023 05:02 6,1 C 5,0 C 2,2 C 90 % 1011,3 hPa 0,0 l/m 0 min 0 min 0 W/m 3,2 km/h (1 Bft) 100,00 %
25.04.2023 05:04 6,1 C 5,0 C 2,2 C 90 % 1011,2 hPa 0,0 l/m 0 min 0 min 0 W/m 6,4 km/h (2 Bft) 100,00 %
25.04.2023 05:06 6,1 C 5,0 C 2,2 C 90 % 1011,3 hPa 0,0 l/m 0 min 0 min 0 W/m 6,4 km/h (2 Bft) 100,00 %
25.04.2023 05:08 6,1 C 5,0 C 2,2 C 90 % 1011,2 hPa 0,0 l/m 0 min 0 min 0 W/m 6,4 km/h (2 Bft) 97,87 %
25.04.2023 05:10 6,1 C 5,0 C 2,2 C 90 % 1011,3 hPa 0,0 l/m 0 min 0 min 0 W/m 6,4 km/h (2 Bft) 100,00 %
25.04.2023 05:12 6,0 C 5,0 C 2,2 C 90 % 1011,3 hPa 0,0 l/m 0 min 0 min 0 W/m 3,2 km/h (1 Bft) 100,00 %
25.04.2023 05:14 6,0 C 5,0 C 2,2 C 90 % 1011,3 hPa 0,0 l/m 0 min 0 min 0 W/m 6,4 km/h (2 Bft) 97,87 %
25.04.2023 05:16 5,9 C 5,0 C 1,7 C 90 % 1011,3 hPa 0,0 l/m 0 min 0 min 0 W/m 9,7 km/h (2 Bft) 100,00 %
25.04.2023 05:18 5,9 C 5,0 C 1,7 C 90 % 1011,3 hPa 0,0 l/m 0 min 0 min 0 W/m 6,4 km/h (2 Bft) 97,83 %
25.04.2023 05:20 5,9 C 5,0 C 2,2 C 91 % 1011,4 hPa 0,0 l/m 0 min 0 min 0 W/m 6,4 km/h (2 Bft) 95,74 %
25.04.2023 05:22 5,9 C 5,0 C 2,2 C 91 % 1011,3 hPa 0,0 l/m 0 min 0 min 0 W/m 9,7 km/h (2 Bft) 97,87 %
25.04.2023 05:24 5,9 C 5,0 C 2,2 C 91 % 1011,4 hPa 0,0 l/m 0 min 0 min 0 W/m 6,4 km/h (2 Bft) 97,87 %
25.04.2023 05:26 5,9 C 5,0 C 1,7 C 91 % 1011,3 hPa 0,0 l/m 0 min 0 min 0 W/m 6,4 km/h (2 Bft) 97,87 %
25.04.2023 05:28 5,8 C 5,0 C 1,7 C 91 % 1011,3 hPa 0,0 l/m 0 min 0 min 0 W/m 9,7 km/h (2 Bft) 95,74 %
25.04.2023 05:30 5,8 C 5,0 C 1,7 C 91 % 1011,3 hPa 0,0 l/m 0 min 0 min 0 W/m 6,4 km/h (2 Bft) 95,74 %
25.04.2023 05:32 5,8 C 5,0 C 1,7 C 91 % 1011,4 hPa 0,0 l/m 0 min 0 min 0 W/m 9,7 km/h (2 Bft) 95,65 %
25.04.2023 05:34 5,8 C 5,0 C 1,7 C 91 % 1011,4 hPa 0,0 l/m 0 min 0 min 0 W/m 9,7 km/h (2 Bft) 92,45 %
25.04.2023 05:36 5,8 C 5,0 C 1,7 C 91 % 1011,4 hPa 0,0 l/m 0 min 0 min 0 W/m 6,4 km/h (2 Bft) 93,62 %
25.04.2023 05:38 5,7 C 5,0 C 1,7 C 91 % 1011,4 hPa 0,0 l/m 0 min 0 min 0 W/m 6,4 km/h (2 Bft) 93,62 %
25.04.2023 05:40 5,7 C 5,0 C 1,7 C 91 % 1011,4 hPa 0,0 l/m 0 min 0 min 0 W/m 9,7 km/h (2 Bft) 95,74 %
25.04.2023 05:42 5,7 C 5,0 C 1,7 C 91 % 1011,4 hPa 0,0 l/m 0 min 0 min 0 W/m 3,2 km/h (1 Bft) 95,74 %
25.04.2023 05:44 5,7 C 5,0 C 1,7 C 91 % 1011,4 hPa 0,0 l/m 0 min 0 min 0 W/m 6,4 km/h (2 Bft) 95,74 %
25.04.2023 05:46 5,7 C 5,0 C 1,7 C 91 % 1011,4 hPa 0,0 l/m 0 min 0 min 0 W/m 6,4 km/h (2 Bft) 91,49 %
25.04.2023 05:48 5,7 C 5,0 C 1,7 C 91 % 1011,4 hPa 0,0 l/m 0 min 0 min 0 W/m 3,2 km/h (1 Bft) 95,74 %
25.04.2023 05:50 5,6 C 5,0 C 1,7 C 91 % 1011,4 hPa 0,0 l/m 0 min 0 min 0 W/m 3,2 km/h (1 Bft) 95,74 %
25.04.2023 05:52 5,6 C 5,0 C 1,7 C 91 % 1011,4 hPa 0,0 l/m 0 min 0 min 0 W/m 3,2 km/h (1 Bft) 97,87 %
25.04.2023 05:54 5,6 C 5,0 C 1,7 C 91 % 1011,4 hPa 0,0 l/m 0 min 0 min 0 W/m 3,2 km/h (1 Bft) 95,74 %
25.04.2023 05:56 5,6 C 5,0 C 1,7 C 92 % 1011,4 hPa 0,0 l/m 0 min 0 min 0 W/m 6,4 km/h (2 Bft) 93,48 %
25.04.2023 05:58 5,6 C 5,0 C 1,7 C 92 % 1011,4 hPa 0,0 l/m 0 min 0 min 0 W/m 6,4 km/h (2 Bft) 100,00 %
25.04.2023 06:00 5,6 C 5,0 C 1,7 C 92 % 1011,5 hPa 0,0 l/m 0 min 0 min 0 W/m 6,4 km/h (2 Bft) 97,87 %
25.04.2023 06:02 5,6 C 4,4 C 1,7 C 92 % 1011,5 hPa 0,0 l/m 0 min 0 min 0 W/m 6,4 km/h (2 Bft) 97,87 %
25.04.2023 06:04 5,6 C 4,4 C 1,7 C 92 % 1011,5 hPa 0,0 l/m 0 min 0 min 0 W/m 6,4 km/h (2 Bft) 100,00 %
25.04.2023 06:07 5,5 C 4,4 C 1,7 C 92 % 1011,5 hPa 0,0 l/m 0 min 0 min 0 W/m 9,7 km/h (2 Bft) 100,00 %
25.04.2023 06:08 5,5 C 4,4 C 1,7 C 92 % 1011,5 hPa 0,0 l/m 0 min 0 min 0 W/m 6,4 km/h (2 Bft) 100,00 %
25.04.2023 06:12 5,5 C 4,4 C 1,7 C 92 % 1011,6 hPa 0,0 l/m 0 min 0 min 0 W/m 6,4 km/h (2 Bft) 98,04 %
25.04.2023 06:14 5,5 C 4,4 C 1,7 C 92 % 1011,6 hPa 0,0 l/m 0 min 0 min 0 W/m 3,2 km/h (1 Bft) 100,00 %
25.04.2023 06:16 5,4 C 4,4 C 1,7 C 92 % 1011,6 hPa 0,0 l/m 0 min 0 min 0 W/m 9,7 km/h (2 Bft) 97,87 %
25.04.2023 06:18 5,4 C 4,4 C 1,7 C 92 % 1011,6 hPa 0,0 l/m 0 min 0 min 0 W/m 6,4 km/h (2 Bft) 95,74 %
25.04.2023 06:20 5,4 C 4,4 C 1,7 C 92 % 1011,7 hPa 0,0 l/m 0 min 0 min 0 W/m 6,4 km/h (2 Bft) 100,00 %
25.04.2023 06:22 5,4 C 4,4 C 1,7 C 92 % 1011,7 hPa 0,0 l/m 0 min 0 min 5 W/m 3,2 km/h (1 Bft) 100,00 %
25.04.2023 06:24 5,4 C 4,4 C 1,7 C 92 % 1011,7 hPa 0,0 l/m 0 min 0 min 6 W/m 3,2 km/h (1 Bft) 95,65 %
25.04.2023 06:26 5,4 C 4,4 C 1,7 C 92 % 1011,6 hPa 0,0 l/m 0 min 0 min 7 W/m 3,2 km/h (1 Bft) 100,00 %
25.04.2023 06:28 5,3 C 4,4 C 1,7 C 92 % 1011,7 hPa 0,0 l/m 0 min 0 min 7 W/m 6,4 km/h (2 Bft) 97,87 %
25.04.2023 06:30 5,3 C 4,4 C 1,7 C 92 % 1011,7 hPa 0,0 l/m 0 min 0 min 9 W/m 3,2 km/h (1 Bft) 97,87 %
25.04.2023 06:32 5,3 C 4,4 C 1,1 C 92 % 1011,7 hPa 0,0 l/m 0 min 0 min 11 W/m 3,2 km/h (1 Bft) 100,00 %
25.04.2023 06:34 5,3 C 4,4 C 1,1 C 92 % 1011,8 hPa 0,0 l/m 0 min 0 min 12 W/m 0,0 km/h (0 Bft) 100,00 %
25.04.2023 06:36 5,3 C 4,4 C 1,1 C 92 % 1011,8 hPa 0,0 l/m 0 min 0 min 13 W/m 3,2 km/h (1 Bft) 97,87 %
25.04.2023 06:38 5,3 C 4,4 C 1,1 C 92 % 1011,8 hPa 0,0 l/m 0 min 0 min 14 W/m 3,2 km/h (1 Bft) 100,00 %
25.04.2023 06:40 5,2 C 4,4 C 1,1 C 92 % 1011,8 hPa 0,0 l/m 0 min 0 min 16 W/m 3,2 km/h (1 Bft) 100,00 %
25.04.2023 06:42 5,2 C 4,4 C 1,1 C 92 % 1011,9 hPa 0,0 l/m 0 min 0 min 18 W/m 3,2 km/h (1 Bft) 97,87 %
25.04.2023 06:44 5,2 C 4,4 C 1,7 C 92 % 1011,9 hPa 0,0 l/m 0 min 0 min 20 W/m 6,4 km/h (2 Bft) 100,00 %
25.04.2023 06:46 5,2 C 4,4 C 1,7 C 92 % 1011,9 hPa 0,0 l/m 0 min 0 min 22 W/m 6,4 km/h (2 Bft) 100,00 %
25.04.2023 06:48 5,2 C 4,4 C 1,7 C 92 % 1011,9 hPa 0,0 l/m 0 min 0 min 25 W/m 3,2 km/h (1 Bft) 97,87 %
25.04.2023 06:50 5,2 C 4,4 C 1,7 C 92 % 1012,0 hPa 0,0 l/m 0 min 0 min 27 W/m 6,4 km/h (2 Bft) 100,00 %
25.04.2023 06:52 5,2 C 4,4 C 1,7 C 92 % 1012,0 hPa 0,0 l/m 0 min 0 min 30 W/m 6,4 km/h (2 Bft) 100,00 %
25.04.2023 06:54 5,2 C 4,4 C 1,7 C 92 % 1012,0 hPa 0,0 l/m 0 min 0 min 32 W/m 3,2 km/h (1 Bft) 97,87 %
25.04.2023 06:56 5,2 C 4,4 C 1,7 C 92 % 1012,0 hPa 0,0 l/m 0 min 0 min 33 W/m 6,4 km/h (2 Bft) 97,87 %
25.04.2023 06:58 5,2 C 4,4 C 1,7 C 92 % 1012,0 hPa 0,0 l/m 0 min 0 min 33 W/m 9,7 km/h (2 Bft) 100,00 %
25.04.2023 07:00 5,2 C 4,4 C 1,7 C 92 % 1012,0 hPa 0,0 l/m 0 min 0 min 33 W/m 6,4 km/h (2 Bft) 97,87 %
25.04.2023 07:02 5,2 C 4,4 C 1,7 C 93 % 1012,1 hPa 0,0 l/m 0 min 0 min 33 W/m 6,4 km/h (2 Bft) 97,87 %
25.04.2023 07:04 5,2 C 5,0 C 1,7 C 93 % 1012,1 hPa 0,0 l/m 0 min 0 min 34 W/m 6,4 km/h (2 Bft) 100,00 %
25.04.2023 07:06 5,2 C 5,0 C 1,7 C 93 % 1012,2 hPa 0,0 l/m 0 min 0 min 36 W/m 9,7 km/h (2 Bft) 98,31 %
25.04.2023 07:08 5,2 C 5,0 C 1,7 C 93 % 1012,2 hPa 0,0 l/m 0 min 0 min 37 W/m 9,7 km/h (2 Bft) 100,00 %
25.04.2023 07:10 5,2 C 5,0 C 1,7 C 93 % 1012,2 hPa 0,0 l/m 0 min 0 min 39 W/m 6,4 km/h (2 Bft) 97,87 %
25.04.2023 07:12 5,2 C 5,0 C 1,7 C 93 % 1012,3 hPa 0,0 l/m 0 min 0 min 40 W/m 6,4 km/h (2 Bft) 97,87 %
25.04.2023 07:14 5,2 C 5,0 C 1,7 C 93 % 1012,2 hPa 0,0 l/m 0 min 0 min 40 W/m 6,4 km/h (2 Bft) 97,87 %
25.04.2023 07:16 5,2 C 5,0 C 1,7 C 93 % 1012,2 hPa 0,0 l/m 0 min 0 min 41 W/m 6,4 km/h (2 Bft) 95,74 %
25.04.2023 07:18 5,3 C 5,0 C 1,7 C 93 % 1012,2 hPa 0,0 l/m 0 min 0 min 44 W/m 9,7 km/h (2 Bft) 97,83 %
25.04.2023 07:20 5,3 C 5,0 C 1,7 C 93 % 1012,2 hPa 0,0 l/m 0 min 0 min 51 W/m 9,7 km/h (2 Bft) 97,87 %
25.04.2023 07:22 5,3 C 5,0 C 1,7 C 93 % 1012,3 hPa 0,0 l/m 0 min 0 min 55 W/m 3,2 km/h (1 Bft) 97,87 %
25.04.2023 07:24 5,3 C 5,0 C 2,2 C 93 % 1012,3 hPa 0,0 l/m 0 min 0 min 55 W/m 3,2 km/h (1 Bft) 97,87 %
25.04.2023 07:26 5,4 C 5,6 C 2,2 C 93 % 1012,3 hPa 0,0 l/m 0 min 0 min 54 W/m 3,2 km/h (1 Bft) 95,74 %
25.04.2023 07:28 5,4 C 5,6 C 2,2 C 93 % 1012,3 hPa 0,0 l/m 0 min 0 min 55 W/m 6,4 km/h (2 Bft) 97,87 %
25.04.2023 07:30 5,4 C 5,6 C 2,2 C 93 % 1012,3 hPa 0,0 l/m 0 min 0 min 57 W/m 6,4 km/h (2 Bft) 93,62 %
25.04.2023 07:32 5,5 C 5,6 C 2,2 C 93 % 1012,3 hPa 0,0 l/m 0 min 0 min 61 W/m 9,7 km/h (2 Bft) 91,30 %
25.04.2023 07:34 5,5 C 5,6 C 2,2 C 93 % 1012,4 hPa 0,0 l/m 0 min 0 min 66 W/m 6,4 km/h (2 Bft) 95,74 %
25.04.2023 07:36 5,6 C 5,6 C 2,2 C 93 % 1012,3 hPa 0,0 l/m 0 min 0 min 74 W/m 9,7 km/h (2 Bft) 93,62 %
25.04.2023 07:38 5,6 C 5,6 C 2,2 C 93 % 1012,4 hPa 0,0 l/m 0 min 0 min 80 W/m 3,2 km/h (1 Bft) 93,62 %
25.04.2023 07:40 5,6 C 6,1 C 2,8 C 93 % 1012,4 hPa 0,0 l/m 0 min 0 min 90 W/m 12,9 km/h (3 Bft) 97,87 %
25.04.2023 07:42 5,7 C 6,1 C 2,8 C 93 % 1012,4 hPa 0,0 l/m 0 min 0 min 94 W/m 9,7 km/h (2 Bft) 95,74 %
25.04.2023 07:44 5,7 C 6,1 C 2,8 C 93 % 1012,4 hPa 0,0 l/m 0 min 0 min 100 W/m 6,4 km/h (2 Bft) 95,65 %
25.04.2023 07:46 5,7 C 6,1 C 2,8 C 93 % 1012,6 hPa 0,0 l/m 2 min 0 min 111 W/m 6,4 km/h (2 Bft) 97,87 %
25.04.2023 07:48 5,8 C 6,1 C 2,8 C 93 % 1012,5 hPa 0,0 l/m 2 min 0 min 113 W/m 12,9 km/h (3 Bft) 95,74 %
25.04.2023 07:50 5,8 C 6,1 C 2,8 C 93 % 1012,6 hPa 0,0 l/m 0 min 0 min 109 W/m 12,9 km/h (3 Bft) 93,62 %
25.04.2023 07:52 5,8 C 6,1 C 2,8 C 93 % 1012,5 hPa 0,0 l/m 0 min 0 min 103 W/m 6,4 km/h (2 Bft) 93,62 %
25.04.2023 07:54 5,9 C 6,1 C 2,8 C 92 % 1012,5 hPa 0,0 l/m 0 min 0 min 103 W/m 12,9 km/h (3 Bft) 93,62 %
25.04.2023 07:56 5,9 C 6,1 C 2,8 C 92 % 1012,6 hPa 0,0 l/m 0 min 0 min 108 W/m 9,7 km/h (2 Bft) 95,74 %
25.04.2023 07:58 5,9 C 6,7 C 2,8 C 92 % 1012,6 hPa 0,0 l/m 0 min 0 min 112 W/m 6,4 km/h (2 Bft) 95,65 %
25.04.2023 08:00 6,0 C 6,7 C 2,8 C 92 % 1012,6 hPa 0,0 l/m 0 min 0 min 116 W/m 9,7 km/h (2 Bft) 95,74 %
25.04.2023 08:02 6,1 C 6,7 C 3,3 C 92 % 1012,6 hPa 0,0 l/m 2 min 0 min 133 W/m 16,1 km/h (3 Bft) 95,74 %
25.04.2023 08:04 6,1 C 6,7 C 3,3 C 92 % 1012,6 hPa 0,0 l/m 2 min 0 min 148 W/m 16,1 km/h (3 Bft) 95,74 %
25.04.2023 08:06 6,1 C 6,7 C 3,3 C 92 % 1012,6 hPa 0,0 l/m 2 min 0 min 163 W/m 12,9 km/h (3 Bft) 94,83 %
25.04.2023 08:08 6,1 C 7,2 C 3,3 C 92 % 1012,7 hPa 0,0 l/m 2 min 0 min 164 W/m 9,7 km/h (2 Bft) 94,44 %
25.04.2023 08:10 6,2 C 7,2 C 3,3 C 92 % 1012,7 hPa 0,0 l/m 2 min 0 min 156 W/m 9,7 km/h (2 Bft) 97,83 %
25.04.2023 08:12 6,2 C 7,2 C 3,3 C 91 % 1012,8 hPa 0,0 l/m 2 min 0 min 143 W/m 19,3 km/h (3 Bft) 95,74 %
25.04.2023 08:14 6,3 C 7,2 C 3,3 C 91 % 1012,8 hPa 0,0 l/m 2 min 0 min 146 W/m 16,1 km/h (3 Bft) 95,74 %
25.04.2023 08:16 6,3 C 7,2 C 3,3 C 91 % 1012,9 hPa 0,0 l/m 2 min 0 min 155 W/m 9,7 km/h (2 Bft) 44,74 %
25.04.2023 08:18 6,4 C 7,2 C 3,3 C 90 % 1012,8 hPa 0,0 l/m 2 min 0 min 148 W/m 19,3 km/h (3 Bft) 100,00 %
25.04.2023 08:20 6,4 C 7,2 C 3,3 C 90 % 1012,8 hPa 0,0 l/m 0 min 0 min 139 W/m 12,9 km/h (3 Bft) 97,87 %
25.04.2023 08:22 6,5 C 7,2 C 3,3 C 90 % 1012,9 hPa 0,0 l/m 0 min 0 min 144 W/m 9,7 km/h (2 Bft) 97,87 %
25.04.2023 08:24 6,5 C 7,2 C 3,3 C 90 % 1012,9 hPa 0,0 l/m 2 min 0 min 160 W/m 16,1 km/h (3 Bft) 95,65 %
25.04.2023 08:26 6,6 C 7,2 C 3,3 C 89 % 1012,9 hPa 0,0 l/m 2 min 0 min 170 W/m 19,3 km/h (3 Bft) 97,87 %
25.04.2023 08:28 6,6 C 7,2 C 3,3 C 89 % 1012,9 hPa 0,0 l/m 2 min 0 min 171 W/m 16,1 km/h (3 Bft) 97,87 %
25.04.2023 08:30 6,6 C 7,2 C 3,3 C 89 % 1013,0 hPa 0,0 l/m 0 min 0 min 159 W/m 22,5 km/h (4 Bft) 97,87 %
25.04.2023 08:32 6,7 C 7,2 C 3,3 C 89 % 1013,0 hPa 0,0 l/m 0 min 0 min 139 W/m 22,5 km/h (4 Bft) 97,87 %
25.04.2023 08:34 6,7 C 7,2 C 3,9 C 88 % 1013,0 hPa 0,0 l/m 0 min 0 min 119 W/m 16,1 km/h (3 Bft) 100,00 %
25.04.2023 08:36 6,7 C 7,2 C 3,9 C 88 % 1012,9 hPa 0,0 l/m 0 min 0 min 135 W/m 16,1 km/h (3 Bft) 97,87 %
25.04.2023 08:38 6,8 C 7,2 C 3,3 C 88 % 1012,9 hPa 0,0 l/m 2 min 0 min 288 W/m 19,3 km/h (3 Bft) 100,00 %
25.04.2023 08:40 6,8 C 7,2 C 3,3 C 87 % 1013,0 hPa 0,0 l/m 2 min 0 min 325 W/m 16,1 km/h (3 Bft) 100,00 %
25.04.2023 08:42 6,8 C 7,2 C 3,3 C 87 % 1012,9 hPa 0,0 l/m 2 min 0 min 257 W/m 19,3 km/h (3 Bft) 100,00 %
25.04.2023 08:44 6,8 C 7,2 C 3,3 C 87 % 1013,0 hPa 0,0 l/m 2 min 0 min 223 W/m 22,5 km/h (4 Bft) 100,00 %
25.04.2023 08:46 6,8 C 6,7 C 3,3 C 87 % 1013,0 hPa 0,0 l/m 2 min 0 min 274 W/m 19,3 km/h (3 Bft) 100,00 %
25.04.2023 08:48 6,9 C 7,2 C 3,3 C 86 % 1013,0 hPa 0,0 l/m 2 min 0 min 306 W/m 19,3 km/h (3 Bft) 97,87 %
25.04.2023 08:50 6,9 C 9,4 C 3,3 C 86 % 1013,0 hPa 0,0 l/m 2 min 0 min 341 W/m 16,1 km/h (3 Bft) 100,00 %
25.04.2023 08:52 7,0 C 9,4 C 3,3 C 86 % 1013,0 hPa 0,0 l/m 2 min 0 min 290 W/m 16,1 km/h (3 Bft) 100,00 %
25.04.2023 08:54 7,1 C 9,4 C 3,3 C 86 % 1013,1 hPa 0,0 l/m 2 min 0 min 204 W/m 19,3 km/h (3 Bft) 100,00 %
25.04.2023 08:56 7,1 C 9,4 C 3,3 C 85 % 1013,1 hPa 0,0 l/m 2 min 0 min 221 W/m 25,7 km/h (4 Bft) 95,74 %
25.04.2023 08:58 7,1 C 10,0 C 3,3 C 85 % 1013,1 hPa 0,0 l/m 2 min 0 min 248 W/m 16,1 km/h (3 Bft) 97,87 %
25.04.2023 09:00 7,1 C 11,1 C 3,3 C 85 % 1013,1 hPa 0,0 l/m 2 min 0 min 327 W/m 19,3 km/h (3 Bft) 100,00 %
25.04.2023 09:02 7,2 C 11,7 C 3,3 C 85 % 1013,1 hPa 0,0 l/m 2 min 0 min 364 W/m 16,1 km/h (3 Bft) 100,00 %
25.04.2023 09:04 7,3 C 12,2 C 3,3 C 85 % 1013,1 hPa 0,0 l/m 2 min 0 min 375 W/m 22,5 km/h (4 Bft) 97,87 %
25.04.2023 09:06 7,4 C 12,8 C 3,9 C 85 % 1013,2 hPa 0,0 l/m 2 min 0 min 390 W/m 22,5 km/h (4 Bft) 97,87 %
25.04.2023 09:08 7,5 C 12,2 C 3,9 C 84 % 1013,1 hPa 0,0 l/m 2 min 0 min 407 W/m 22,5 km/h (4 Bft) 97,83 %
25.04.2023 09:10 7,6 C 12,8 C 4,4 C 84 % 1013,2 hPa 0,0 l/m 2 min 0 min 435 W/m 19,3 km/h (3 Bft) 95,74 %
25.04.2023 09:12 7,7 C 12,2 C 4,4 C 84 % 1013,2 hPa 0,0 l/m 2 min 0 min 417 W/m 22,5 km/h (4 Bft) 97,87 %
25.04.2023 09:14 7,8 C 12,8 C 4,4 C 83 % 1013,2 hPa 0,0 l/m 2 min 0 min 452 W/m 12,9 km/h (3 Bft) 97,87 %
25.04.2023 09:16 7,9 C 13,9 C 5,0 C 83 % 1013,2 hPa 0,0 l/m 2 min 0 min 495 W/m 19,3 km/h (3 Bft) 97,87 %
25.04.2023 09:18 8,0 C 12,8 C 5,0 C 83 % 1013,2 hPa 0,0 l/m 2 min 0 min 526 W/m 25,7 km/h (4 Bft) 97,37 %
25.04.2023 09:20 8,2 C 13,9 C 5,6 C 82 % 1013,2 hPa 0,0 l/m 2 min 0 min 543 W/m 19,3 km/h (3 Bft) 97,87 %
25.04.2023 09:22 8,3 C 13,3 C 5,6 C 82 % 1013,3 hPa 0,0 l/m 2 min 0 min 437 W/m 19,3 km/h (3 Bft) 97,87 %
25.04.2023 09:24 8,4 C 13,9 C 5,6 C 81 % 1013,3 hPa 0,0 l/m 2 min 0 min 459 W/m 22,5 km/h (4 Bft) 95,74 %
25.04.2023 09:26 8,5 C 12,2 C 5,6 C 81 % 1013,3 hPa 0,0 l/m 2 min 0 min 311 W/m 12,9 km/h (3 Bft) 95,65 %
25.04.2023 09:28 8,6 C 10,6 C 5,0 C 81 % 1013,3 hPa 0,0 l/m 0 min 0 min 198 W/m 12,9 km/h (3 Bft) 95,74 %
25.04.2023 09:30 8,6 C 10,6 C 5,0 C 81 % 1013,3 hPa 0,0 l/m 0 min 0 min 208 W/m 19,3 km/h (3 Bft) 95,74 %
25.04.2023 09:32 8,6 C 9,4 C 5,0 C 80 % 1013,4 hPa 0,0 l/m 0 min 0 min 205 W/m 22,5 km/h (4 Bft) 97,87 %
25.04.2023 09:34 8,6 C 8,9 C 5,0 C 80 % 1013,4 hPa 0,0 l/m 0 min 0 min 118 W/m 16,1 km/h (3 Bft) 97,87 %
25.04.2023 09:36 8,6 C 8,9 C 4,4 C 79 % 1013,4 hPa 0,0 l/m 0 min 0 min 98 W/m 12,9 km/h (3 Bft) 97,87 %
25.04.2023 09:38 8,5 C 8,3 C 4,4 C 79 % 1013,5 hPa 0,0 l/m 0 min 0 min 98 W/m 12,9 km/h (3 Bft) 97,87 %
25.04.2023 09:40 8,5 C 8,9 C 4,4 C 79 % 1013,5 hPa 0,0 l/m 0 min 0 min 145 W/m 12,9 km/h (3 Bft) 95,65 %
25.04.2023 09:42 8,4 C 8,3 C 4,4 C 79 % 1013,5 hPa 0,0 l/m 0 min 0 min 121 W/m 29,0 km/h (5 Bft) 97,87 %
25.04.2023 09:44 8,3 C 10,6 C 4,4 C 79 % 1013,5 hPa 0,0 l/m 0 min 0 min 199 W/m 19,3 km/h (3 Bft) 100,00 %
25.04.2023 09:46 8,3 C 11,7 C 4,4 C 79 % 1013,4 hPa 0,0 l/m 2 min 0 min 356 W/m 12,9 km/h (3 Bft) 100,00 %
25.04.2023 09:48 8,4 C 12,8 C 4,4 C 79 % 1013,5 hPa 0,0 l/m 2 min 0 min 539 W/m 19,3 km/h (3 Bft) 100,00 %
25.04.2023 09:50 8,5 C 13,3 C 5,0 C 79 % 1013,6 hPa 0,0 l/m 2 min 0 min 437 W/m 16,1 km/h (3 Bft) 100,00 %
25.04.2023 09:52 8,6 C 13,3 C 5,0 C 78 % 1013,6 hPa 0,0 l/m 2 min 0 min 342 W/m 22,5 km/h (4 Bft) 100,00 %
25.04.2023 09:54 8,7 C 13,3 C 5,0 C 78 % 1013,6 hPa 0,0 l/m 0 min 0 min 174 W/m 22,5 km/h (4 Bft) 97,87 %
25.04.2023 09:56 8,8 C 13,9 C 5,0 C 77 % 1013,6 hPa 0,0 l/m 0 min 0 min 111 W/m 19,3 km/h (3 Bft) 100,00 %
25.04.2023 09:58 8,8 C 14,4 C 5,0 C 76 % 1013,6 hPa 0,0 l/m 0 min 0 min 186 W/m 16,1 km/h (3 Bft) 97,87 %
25.04.2023 10:00 9,0 C 15,0 C 5,0 C 76 % 1013,5 hPa 0,0 l/m 2 min 0 min 462 W/m 19,3 km/h (3 Bft) 100,00 %
25.04.2023 10:02 9,1 C 15,0 C 5,0 C 76 % 1013,5 hPa 0,0 l/m 2 min 0 min 544 W/m 16,1 km/h (3 Bft) 97,87 %
25.04.2023 10:04 9,2 C 15,0 C 5,6 C 76 % 1013,6 hPa 0,0 l/m 2 min 0 min 487 W/m 22,5 km/h (4 Bft) 97,87 %
25.04.2023 10:06 9,3 C 13,3 C 5,6 C 75 % 1013,7 hPa 0,0 l/m 2 min 0 min 309 W/m 16,1 km/h (3 Bft) 98,28 %
25.04.2023 10:08 9,3 C 12,2 C 5,0 C 74 % 1013,7 hPa 0,0 l/m 0 min 0 min 217 W/m 25,7 km/h (4 Bft) 100,00 %
25.04.2023 10:10 9,2 C 11,1 C 5,0 C 74 % 1013,7 hPa 0,0 l/m 0 min 0 min 230 W/m 16,1 km/h (3 Bft) 100,00 %
25.04.2023 10:12 9,2 C 11,7 C 5,6 C 74 % 1013,8 hPa 0,0 l/m 0 min 0 min 246 W/m 25,7 km/h (4 Bft) 97,87 %
25.04.2023 10:14 9,2 C 12,8 C 5,6 C 74 % 1013,8 hPa 0,0 l/m 0 min 0 min 238 W/m 16,1 km/h (3 Bft) 97,87 %
25.04.2023 10:16 9,3 C 13,3 C 6,1 C 74 % 1013,9 hPa 0,0 l/m 0 min 0 min 232 W/m 16,1 km/h (3 Bft) 95,74 %
25.04.2023 10:18 9,4 C 12,2 C 5,6 C 74 % 1013,9 hPa 0,0 l/m 0 min 0 min 196 W/m 16,1 km/h (3 Bft) 97,87 %
25.04.2023 10:20 9,4 C 12,2 C 5,6 C 74 % 1013,9 hPa 0,0 l/m 0 min 0 min 204 W/m 19,3 km/h (3 Bft) 95,65 %
25.04.2023 10:22 9,4 C 11,1 C 5,6 C 73 % 1014,0 hPa 0,0 l/m 0 min 0 min 215 W/m 19,3 km/h (3 Bft) 95,74 %
25.04.2023 10:24 9,3 C 11,7 C 5,6 C 72 % 1014,0 hPa 0,0 l/m 0 min 0 min 287 W/m 19,3 km/h (3 Bft) 97,87 %
25.04.2023 10:26 9,3 C 10,6 C 5,6 C 72 % 1014,0 hPa 0,0 l/m 0 min 0 min 221 W/m 9,7 km/h (2 Bft) 95,74 %
25.04.2023 10:28 9,3 C 12,2 C 5,6 C 72 % 1014,0 hPa 0,0 l/m 2 min 0 min 538 W/m 16,1 km/h (3 Bft) 97,87 %
25.04.2023 10:30 9,3 C 13,3 C 6,1 C 72 % 1014,0 hPa 0,0 l/m 2 min 0 min 844 W/m 9,7 km/h (2 Bft) 97,87 %
25.04.2023 10:32 9,5 C 13,9 C 6,7 C 73 % 1014,0 hPa 0,0 l/m 2 min 0 min 613 W/m 9,7 km/h (2 Bft) 97,87 %
25.04.2023 10:34 9,7 C 12,8 C 6,7 C 73 % 1014,0 hPa 0,0 l/m 2 min 0 min 494 W/m 25,7 km/h (4 Bft) 97,83 %
25.04.2023 10:36 9,7 C 11,7 C 6,1 C 72 % 1014,1 hPa 0,0 l/m 0 min 0 min 178 W/m 16,1 km/h (3 Bft) 97,87 %
25.04.2023 10:38 9,7 C 10,6 C 5,6 C 71 % 1014,1 hPa 0,0 l/m 0 min 0 min 158 W/m 16,1 km/h (3 Bft) 97,87 %
25.04.2023 10:40 9,6 C 10,0 C 5,6 C 71 % 1014,2 hPa 0,0 l/m 0 min 0 min 146 W/m 19,3 km/h (3 Bft) 97,87 %
25.04.2023 10:42 9,6 C 9,4 C 5,6 C 70 % 1014,1 hPa 0,0 l/m 0 min 0 min 137 W/m 9,7 km/h (2 Bft) 95,74 %
25.04.2023 10:44 9,5 C 8,9 C 5,0 C 69 % 1014,1 hPa 0,0 l/m 0 min 0 min 139 W/m 9,7 km/h (2 Bft) 97,87 %
25.04.2023 10:46 9,4 C 8,9 C 5,0 C 69 % 1014,2 hPa 0,0 l/m 0 min 0 min 156 W/m 16,1 km/h (3 Bft) 97,87 %
25.04.2023 10:48 9,3 C 8,9 C 5,0 C 69 % 1014,3 hPa 0,0 l/m 0 min 0 min 168 W/m 22,5 km/h (4 Bft) 97,83 %
25.04.2023 10:50 9,1 C 8,3 C 5,0 C 69 % 1014,3 hPa 0,0 l/m 0 min 0 min 172 W/m 16,1 km/h (3 Bft) 97,87 %
25.04.2023 10:52 9,0 C 8,3 C 5,0 C 69 % 1014,3 hPa 0,0 l/m 0 min 0 min 170 W/m 12,9 km/h (3 Bft) 95,74 %
25.04.2023 10:54 8,8 C 8,3 C 5,0 C 70 % 1014,3 hPa 0,0 l/m 0 min 0 min 179 W/m 22,5 km/h (4 Bft) 97,87 %
25.04.2023 10:56 8,8 C 8,3 C 5,0 C 71 % 1014,4 hPa 0,0 l/m 0 min 0 min 203 W/m 19,3 km/h (3 Bft) 97,87 %
25.04.2023 10:58 8,7 C 8,9 C 5,0 C 71 % 1014,3 hPa 0,0 l/m 0 min 0 min 237 W/m 16,1 km/h (3 Bft) 97,87 %
25.04.2023 11:00 8,7 C 10,0 C 5,6 C 71 % 1014,4 hPa 0,0 l/m 0 min 0 min 303 W/m 22,5 km/h (4 Bft) 89,36 %
25.04.2023 11:02 8,8 C 11,7 C 6,1 C 72 % 1014,4 hPa 0,0 l/m 2 min 0 min 574 W/m 9,7 km/h (2 Bft) 93,62 %
25.04.2023 11:04 8,9 C 12,8 C 6,7 C 72 % 1014,4 hPa 0,0 l/m 2 min 0 min 863 W/m 19,3 km/h (3 Bft) 95,65 %
25.04.2023 11:06 9,1 C 12,2 C 6,7 C 71 % 1014,5 hPa 0,0 l/m 2 min 0 min 617 W/m 19,3 km/h (3 Bft) 96,61 %
25.04.2023 11:08 9,2 C 10,6 C 6,1 C 69 % 1014,4 hPa 0,0 l/m 0 min 0 min 237 W/m 16,1 km/h (3 Bft) 97,14 %
25.04.2023 11:10 9,2 C 10,6 C 6,1 C 70 % 1014,5 hPa 0,0 l/m 0 min 0 min 200 W/m 12,9 km/h (3 Bft) 97,87 %
25.04.2023 11:12 9,2 C 10,0 C 6,1 C 69 % 1014,5 hPa 0,0 l/m 0 min 0 min 186 W/m 16,1 km/h (3 Bft) 97,87 %
25.04.2023 11:14 9,2 C 9,4 C 5,6 C 69 % 1014,6 hPa 0,0 l/m 0 min 0 min 196 W/m 12,9 km/h (3 Bft) 93,75 %
25.04.2023 11:16 9,1 C 9,4 C 5,6 C 69 % 1014,6 hPa 0,0 l/m 0 min 0 min 241 W/m 12,9 km/h (3 Bft) 97,87 %
25.04.2023 11:18 9,1 C 9,4 C 5,6 C 69 % 1014,6 hPa 0,0 l/m 0 min 0 min 269 W/m 22,5 km/h (4 Bft) 95,65 %
25.04.2023 11:20 9,1 C 10,0 C 5,6 C 69 % 1014,6 hPa 0,0 l/m 0 min 0 min 262 W/m 19,3 km/h (3 Bft) 95,74 %
25.04.2023 11:22 9,1 C 9,4 C 5,6 C 69 % 1014,8 hPa 0,0 l/m 0 min 0 min 248 W/m 22,5 km/h (4 Bft) 97,87 %
25.04.2023 11:24 9,1 C 9,4 C 5,6 C 69 % 1014,8 hPa 0,0 l/m 0 min 0 min 252 W/m 16,1 km/h (3 Bft) 95,74 %
25.04.2023 11:26 9,1 C 9,4 C 5,6 C 69 % 1014,7 hPa 0,0 l/m 0 min 0 min 264 W/m 19,3 km/h (3 Bft) 97,87 %
25.04.2023 11:28 9,1 C 10,0 C 5,6 C 69 % 1014,8 hPa 0,0 l/m 0 min 0 min 277 W/m 22,5 km/h (4 Bft) 95,74 %
25.04.2023 11:30 9,1 C 10,0 C 5,6 C 69 % 1014,8 hPa 0,0 l/m 0 min 0 min 301 W/m 16,1 km/h (3 Bft) 95,65 %
25.04.2023 11:32 9,2 C 10,0 C 6,1 C 69 % 1014,9 hPa 0,0 l/m 0 min 0 min 320 W/m 22,5 km/h (4 Bft) 97,87 %
25.04.2023 11:34 9,2 C 10,6 C 6,1 C 69 % 1014,8 hPa 0,0 l/m 2 min 0 min 354 W/m 12,9 km/h (3 Bft) 97,87 %
25.04.2023 11:36 9,2 C 11,1 C 6,1 C 69 % 1014,8 hPa 0,0 l/m 2 min 0 min 394 W/m 19,3 km/h (3 Bft) 100,00 %
25.04.2023 11:38 9,3 C 12,2 C 6,7 C 69 % 1014,8 hPa 0,0 l/m 2 min 0 min 552 W/m 16,1 km/h (3 Bft) 97,87 %
25.04.2023 11:40 9,5 C 12,8 C 7,2 C 70 % 1014,8 hPa 0,0 l/m 2 min 0 min 555 W/m 19,3 km/h (3 Bft) 100,00 %
25.04.2023 11:42 9,7 C 12,2 C 7,2 C 69 % 1014,8 hPa 0,0 l/m 2 min 0 min 422 W/m 16,1 km/h (3 Bft) 100,00 %
25.04.2023 11:44 9,8 C 12,2 C 7,2 C 68 % 1014,9 hPa 0,0 l/m 2 min 0 min 383 W/m 22,5 km/h (4 Bft) 100,00 %
25.04.2023 11:46 9,8 C 11,7 C 7,2 C 67 % 1014,9 hPa 0,0 l/m 2 min 0 min 366 W/m 22,5 km/h (4 Bft) 100,00 %
25.04.2023 11:48 9,8 C 11,1 C 6,7 C 67 % 1015,0 hPa 0,0 l/m 0 min 0 min 334 W/m 19,3 km/h (3 Bft) 100,00 %
25.04.2023 11:50 9,8 C 11,1 C 6,7 C 67 % 1015,0 hPa 0,0 l/m 0 min 0 min 322 W/m 22,5 km/h (4 Bft) 100,00 %
25.04.2023 11:52 9,8 C 11,1 C 6,7 C 67 % 1015,1 hPa 0,0 l/m 0 min 0 min 320 W/m 22,5 km/h (4 Bft) 100,00 %
25.04.2023 11:54 9,8 C 11,1 C 6,7 C 67 % 1015,0 hPa 0,0 l/m 2 min 0 min 362 W/m 25,7 km/h (4 Bft) 97,87 %
25.04.2023 11:56 9,8 C 11,1 C 6,7 C 68 % 1015,0 hPa 0,0 l/m 2 min 0 min 411 W/m 19,3 km/h (3 Bft) 100,00 %
25.04.2023 11:58 9,8 C 11,7 C 7,2 C 68 % 1015,1 hPa 0,0 l/m 2 min 0 min 414 W/m 12,9 km/h (3 Bft) 100,00 %
25.04.2023 12:00 9,9 C 11,7 C 7,2 C 68 % 1015,1 hPa 0,0 l/m 2 min 0 min 383 W/m 19,3 km/h (3 Bft) 100,00 %
25.04.2023 12:02 10,0 C 11,7 C 7,2 C 68 % 1015,2 hPa 0,0 l/m 0 min 0 min 321 W/m 19,3 km/h (3 Bft) 100,00 %
25.04.2023 12:04 10,1 C 11,7 C 6,7 C 68 % 1015,2 hPa 0,0 l/m 0 min 0 min 285 W/m 22,5 km/h (4 Bft) 97,87 %
25.04.2023 12:07 10,0 C 11,1 C 6,7 C 67 % 1015,3 hPa 0,0 l/m 0 min 0 min 264 W/m 19,3 km/h (3 Bft) 98,59 %
25.04.2023 12:10 9,9 C 10,6 C 6,1 C 66 % 1015,4 hPa 0,0 l/m 0 min 0 min 262 W/m 16,1 km/h (3 Bft) 97,28 %
25.04.2023 12:12 9,8 C 10,0 C 6,1 C 67 % 1015,4 hPa 0,0 l/m 0 min 0 min 267 W/m 35,4 km/h (5 Bft) 100,00 %
25.04.2023 12:14 9,8 C 10,0 C 6,1 C 67 % 1015,3 hPa 0,0 l/m 0 min 0 min 286 W/m 19,3 km/h (3 Bft) 100,00 %
25.04.2023 12:16 9,7 C 10,0 C 6,1 C 67 % 1015,3 hPa 0,0 l/m 0 min 0 min 297 W/m 19,3 km/h (3 Bft) 95,74 %
25.04.2023 12:18 9,7 C 10,0 C 6,1 C 68 % 1015,3 hPa 0,0 l/m 0 min 0 min 288 W/m 12,9 km/h (3 Bft) 100,00 %
25.04.2023 12:20 9,7 C 10,6 C 6,1 C 68 % 1015,3 hPa 0,0 l/m 0 min 0 min 277 W/m 19,3 km/h (3 Bft) 100,00 %
25.04.2023 12:22 9,7 C 10,6 C 6,1 C 69 % 1015,4 hPa 0,0 l/m 0 min 0 min 281 W/m 12,9 km/h (3 Bft) 100,00 %
25.04.2023 12:24 9,7 C 10,6 C 6,1 C 69 % 1015,3 hPa 0,0 l/m 0 min 0 min 307 W/m 16,1 km/h (3 Bft) 97,83 %
25.04.2023 12:26 9,7 C 11,1 C 6,7 C 69 % 1015,4 hPa 0,0 l/m 2 min 0 min 392 W/m 16,1 km/h (3 Bft) 100,00 %
25.04.2023 12:28 9,7 C 11,7 C 7,2 C 68 % 1015,4 hPa 0,0 l/m 2 min 0 min 438 W/m 16,1 km/h (3 Bft) 100,00 %
25.04.2023 12:30 9,8 C 11,1 C 7,2 C 68 % 1015,3 hPa 0,0 l/m 2 min 0 min 376 W/m 19,3 km/h (3 Bft) 100,00 %
25.04.2023 12:32 9,8 C 11,7 C 7,2 C 69 % 1015,4 hPa 0,0 l/m 2 min 0 min 401 W/m 12,9 km/h (3 Bft) 100,00 %
25.04.2023 12:34 9,9 C 12,2 C 7,2 C 69 % 1015,4 hPa 0,0 l/m 2 min 0 min 493 W/m 16,1 km/h (3 Bft) 95,74 %
25.04.2023 12:36 10,0 C 14,4 C 8,9 C 70 % 1015,4 hPa 0,0 l/m 2 min 0 min 588 W/m 6,4 km/h (2 Bft) 97,83 %
25.04.2023 12:38 10,2 C 15,6 C 10,0 C 70 % 1015,4 hPa 0,0 l/m 2 min 0 min 777 W/m 12,9 km/h (3 Bft) 97,87 %
25.04.2023 12:40 10,4 C 15,0 C 10,0 C 70 % 1015,4 hPa 0,0 l/m 2 min 0 min 707 W/m 12,9 km/h (3 Bft) 95,74 %
25.04.2023 12:42 10,5 C 13,3 C 9,4 C 68 % 1015,3 hPa 0,0 l/m 2 min 0 min 564 W/m 9,7 km/h (2 Bft) 97,87 %
25.04.2023 12:44 10,5 C 13,3 C 9,4 C 68 % 1015,4 hPa 0,0 l/m 2 min 0 min 481 W/m 16,1 km/h (3 Bft) 93,62 %
25.04.2023 12:46 10,6 C 15,6 C 10,0 C 68 % 1015,4 hPa 0,0 l/m 2 min 0 min 487 W/m 16,1 km/h (3 Bft) 95,74 %
25.04.2023 12:48 10,7 C 14,4 C 9,4 C 68 % 1015,4 hPa 0,0 l/m 2 min 0 min 484 W/m 9,7 km/h (2 Bft) 97,87 %
25.04.2023 12:50 10,7 C 13,3 C 8,9 C 66 % 1015,3 hPa 0,0 l/m 2 min 0 min 435 W/m 19,3 km/h (3 Bft) 97,83 %
25.04.2023 12:52 10,8 C 15,0 C 9,4 C 65 % 1015,2 hPa 0,0 l/m 2 min 0 min 434 W/m 12,9 km/h (3 Bft) 95,74 %
25.04.2023 12:54 10,8 C 14,4 C 8,9 C 64 % 1015,2 hPa 0,0 l/m 2 min 0 min 668 W/m 12,9 km/h (3 Bft) 94,00 %
25.04.2023 12:56 10,8 C 15,0 C 8,9 C 65 % 1015,3 hPa 0,0 l/m 2 min 0 min 684 W/m 12,9 km/h (3 Bft) 95,74 %
25.04.2023 12:58 10,9 C 15,6 C 9,4 C 65 % 1015,2 hPa 0,0 l/m 2 min 0 min 684 W/m 12,9 km/h (3 Bft) 95,74 %
25.04.2023 13:00 11,0 C 15,0 C 9,4 C 65 % 1015,3 hPa 0,0 l/m 2 min 0 min 684 W/m 22,5 km/h (4 Bft) 95,74 %
25.04.2023 13:02 11,1 C 15,0 C 8,9 C 65 % 1015,3 hPa 0,0 l/m 2 min 0 min 652 W/m 22,5 km/h (4 Bft) 93,62 %
25.04.2023 13:04 11,1 C 13,3 C 8,9 C 64 % 1015,4 hPa 0,0 l/m 2 min 0 min 486 W/m 19,3 km/h (3 Bft) 91,30 %
25.04.2023 13:06 10,9 C 12,2 C 8,3 C 65 % 1015,3 hPa 0,0 l/m 2 min 0 min 452 W/m 16,1 km/h (3 Bft) 94,92 %
25.04.2023 13:08 10,9 C 12,2 C 8,3 C 66 % 1015,4 hPa 0,0 l/m 2 min 0 min 411 W/m 12,9 km/h (3 Bft) 97,14 %
25.04.2023 13:10 10,9 C 12,2 C 7,8 C 65 % 1015,3 hPa 0,0 l/m 0 min 0 min 365 W/m 19,3 km/h (3 Bft) 93,62 %
25.04.2023 13:12 10,8 C 11,7 C 7,8 C 64 % 1015,4 hPa 0,0 l/m 0 min 0 min 290 W/m 12,9 km/h (3 Bft) 93,62 %
25.04.2023 13:14 10,7 C 11,1 C 7,2 C 65 % 1015,3 hPa 0,0 l/m 0 min 0 min 230 W/m 12,9 km/h (3 Bft) 91,49 %
25.04.2023 13:16 10,6 C 10,6 C 7,2 C 66 % 1015,3 hPa 0,0 l/m 0 min 0 min 199 W/m 12,9 km/h (3 Bft) 93,62 %
25.04.2023 13:18 10,5 C 10,6 C 6,7 C 65 % 1015,4 hPa 0,0 l/m 0 min 0 min 176 W/m 12,9 km/h (3 Bft) 93,48 %
25.04.2023 13:20 10,3 C 10,0 C 6,7 C 64 % 1015,4 hPa 0,0 l/m 0 min 0 min 172 W/m 22,5 km/h (4 Bft) 91,49 %
25.04.2023 13:22 10,2 C 10,0 C 6,7 C 64 % 1015,4 hPa 0,0 l/m 0 min 0 min 185 W/m 16,1 km/h (3 Bft) 93,62 %
25.04.2023 13:24 10,1 C 10,0 C 6,7 C 65 % 1015,3 hPa 0,0 l/m 0 min 0 min 204 W/m 12,9 km/h (3 Bft) 93,62 %
25.04.2023 13:26 10,1 C 10,0 C 6,7 C 65 % 1015,4 hPa 0,0 l/m 0 min 0 min 237 W/m 19,3 km/h (3 Bft) 93,62 %
25.04.2023 13:28 10,1 C 10,0 C 6,7 C 66 % 1015,4 hPa 0,0 l/m 0 min 0 min 268 W/m 9,7 km/h (2 Bft) 93,62 %
25.04.2023 13:30 10,0 C 10,0 C 6,7 C 66 % 1015,4 hPa 0,0 l/m 0 min 0 min 274 W/m 16,1 km/h (3 Bft) 93,62 %
25.04.2023 13:32 10,0 C 10,0 C 6,7 C 66 % 1015,4 hPa 0,0 l/m 0 min 0 min 274 W/m 19,3 km/h (3 Bft) 93,48 %
25.04.2023 13:34 10,0 C 10,6 C 6,7 C 66 % 1015,4 hPa 0,0 l/m 0 min 0 min 272 W/m 16,1 km/h (3 Bft) 95,74 %
25.04.2023 13:36 10,0 C 10,0 C 6,7 C 66 % 1015,4 hPa 0,0 l/m 0 min 0 min 278 W/m 12,9 km/h (3 Bft) 95,74 %
25.04.2023 13:38 9,9 C 10,0 C 6,7 C 67 % 1015,4 hPa 0,0 l/m 0 min 0 min 292 W/m 9,7 km/h (2 Bft) 95,74 %
25.04.2023 13:40 9,9 C 10,0 C 6,7 C 66 % 1015,4 hPa 0,0 l/m 0 min 0 min 318 W/m 12,9 km/h (3 Bft) 93,62 %
25.04.2023 13:42 9,9 C 10,0 C 6,7 C 66 % 1015,4 hPa 0,0 l/m 0 min 0 min 360 W/m 12,9 km/h (3 Bft) 93,62 %
25.04.2023 13:44 9,9 C 10,6 C 6,7 C 66 % 1015,4 hPa 0,0 l/m 2 min 0 min 401 W/m 12,9 km/h (3 Bft) 93,48 %
25.04.2023 13:46 10,0 C 11,1 C 7,2 C 66 % 1015,5 hPa 0,0 l/m 2 min 0 min 417 W/m 16,1 km/h (3 Bft) 93,62 %
25.04.2023 13:48 10,1 C 11,7 C 7,2 C 66 % 1015,4 hPa 0,0 l/m 2 min 0 min 452 W/m 19,3 km/h (3 Bft) 97,87 %
25.04.2023 13:50 10,1 C 11,1 C 7,2 C 65 % 1015,4 hPa 0,0 l/m 2 min 0 min 418 W/m 12,9 km/h (3 Bft) 97,87 %
25.04.2023 13:52 10,2 C 11,7 C 7,2 C 64 % 1015,4 hPa 0,0 l/m 2 min 0 min 416 W/m 19,3 km/h (3 Bft) 95,74 %
25.04.2023 13:54 10,2 C 11,1 C 7,2 C 67 % 1015,5 hPa 0,0 l/m 0 min 0 min 377 W/m 19,3 km/h (3 Bft) 97,87 %
25.04.2023 13:56 10,1 C 10,6 C 7,2 C 67 % 1015,5 hPa 0,0 l/m 0 min 0 min 367 W/m 19,3 km/h (3 Bft) 97,87 %
25.04.2023 13:58 9,9 C 10,6 C 6,7 C 67 % 1015,5 hPa 0,0 l/m 0 min 0 min 367 W/m 22,5 km/h (4 Bft) 95,74 %
25.04.2023 14:00 9,9 C 10,6 C 6,7 C 68 % 1015,5 hPa 0,0 l/m 0 min 0 min 338 W/m 16,1 km/h (3 Bft) 95,65 %
25.04.2023 14:02 9,8 C 10,0 C 6,7 C 68 % 1015,6 hPa 0,0 l/m 0 min 0 min 309 W/m 19,3 km/h (3 Bft) 97,87 %
25.04.2023 14:04 9,8 C 10,0 C 6,7 C 68 % 1015,5 hPa 0,0 l/m 0 min 0 min 294 W/m 12,9 km/h (3 Bft) 97,96 %
25.04.2023 14:06 9,8 C 10,0 C 6,7 C 68 % 1015,7 hPa 0,0 l/m 0 min 0 min 291 W/m 9,7 km/h (2 Bft) 94,92 %
25.04.2023 14:08 9,8 C 10,0 C 6,7 C 67 % 1015,6 hPa 0,0 l/m 0 min 0 min 305 W/m 19,3 km/h (3 Bft) 100,00 %
25.04.2023 14:10 9,7 C 10,0 C 6,7 C 67 % 1015,6 hPa 0,0 l/m 0 min 0 min 334 W/m 16,1 km/h (3 Bft) 100,00 %
25.04.2023 14:12 9,7 C 10,6 C 6,7 C 66 % 1015,6 hPa 0,0 l/m 2 min 0 min 395 W/m 9,7 km/h (2 Bft) 100,00 %
25.04.2023 14:14 9,8 C 11,7 C 7,2 C 65 % 1015,7 hPa 0,0 l/m 2 min 0 min 444 W/m 16,1 km/h (3 Bft) 97,87 %
25.04.2023 14:16 9,9 C 11,7 C 7,2 C 65 % 1015,7 hPa 0,0 l/m 2 min 0 min 435 W/m 16,1 km/h (3 Bft) 97,87 %
25.04.2023 14:18 10,1 C 12,2 C 7,2 C 66 % 1015,7 hPa 0,0 l/m 2 min 0 min 395 W/m 12,9 km/h (3 Bft) 100,00 %
25.04.2023 14:20 10,1 C 11,7 C 7,2 C 64 % 1015,7 hPa 0,0 l/m 0 min 0 min 335 W/m 12,9 km/h (3 Bft) 97,87 %
25.04.2023 14:22 10,1 C 13,3 C 7,2 C 64 % 1015,8 hPa 0,0 l/m 0 min 0 min 345 W/m 16,1 km/h (3 Bft) 97,87 %
25.04.2023 14:24 10,2 C 15,6 C 7,2 C 62 % 1015,7 hPa 0,0 l/m 2 min 0 min 928 W/m 22,5 km/h (4 Bft) 100,00 %
25.04.2023 14:26 10,5 C 17,2 C 7,2 C 62 % 1015,7 hPa 0,0 l/m 2 min 0 min 867 W/m 9,7 km/h (2 Bft) 100,00 %
25.04.2023 14:28 10,8 C 18,3 C 7,2 C 63 % 1015,6 hPa 0,0 l/m 2 min 0 min 878 W/m 12,9 km/h (3 Bft) 100,00 %
25.04.2023 14:30 10,9 C 18,3 C 7,2 C 60 % 1015,7 hPa 0,0 l/m 2 min 0 min 877 W/m 16,1 km/h (3 Bft) 100,00 %
25.04.2023 14:32 11,1 C 18,3 C 7,8 C 61 % 1015,7 hPa 0,0 l/m 2 min 0 min 918 W/m 19,3 km/h (3 Bft) 100,00 %
25.04.2023 14:34 11,3 C 17,8 C 7,8 C 61 % 1015,7 hPa 0,0 l/m 2 min 0 min 953 W/m 25,7 km/h (4 Bft) 97,87 %
25.04.2023 14:36 11,2 C 18,3 C 7,8 C 59 % 1015,7 hPa 0,0 l/m 2 min 0 min 975 W/m 12,9 km/h (3 Bft) 100,00 %
25.04.2023 14:38 11,4 C 17,8 C 7,8 C 58 % 1015,8 hPa 0,0 l/m 2 min 0 min 1034 W/m 29,0 km/h (5 Bft) 97,87 %
25.04.2023 14:40 11,4 C 16,7 C 7,8 C 58 % 1015,8 hPa 0,0 l/m 2 min 0 min 1034 W/m 19,3 km/h (3 Bft) 100,00 %
25.04.2023 14:42 11,6 C 15,6 C 8,3 C 59 % 1015,7 hPa 0,0 l/m 2 min 0 min 878 W/m 16,1 km/h (3 Bft) 97,87 %
25.04.2023 14:44 11,6 C 15,0 C 8,3 C 57 % 1015,7 hPa 0,0 l/m 2 min 0 min 472 W/m 25,7 km/h (4 Bft) 100,00 %
25.04.2023 14:46 11,4 C 13,9 C 7,8 C 58 % 1015,8 hPa 0,0 l/m 0 min 0 min 278 W/m 22,5 km/h (4 Bft) 100,00 %
25.04.2023 14:48 11,1 C 12,8 C 7,2 C 59 % 1015,8 hPa 0,0 l/m 0 min 0 min 235 W/m 19,3 km/h (3 Bft) 97,87 %
25.04.2023 14:50 10,8 C 11,7 C 7,2 C 60 % 1015,9 hPa 0,0 l/m 0 min 0 min 224 W/m 25,7 km/h (4 Bft) 97,87 %
25.04.2023 14:52 10,6 C 11,1 C 7,2 C 62 % 1015,9 hPa 0,0 l/m 0 min 0 min 224 W/m 22,5 km/h (4 Bft) 97,87 %
25.04.2023 14:54 10,5 C 10,6 C 6,7 C 64 % 1016,1 hPa 0,0 l/m 0 min 0 min 238 W/m 25,7 km/h (4 Bft) 100,00 %
25.04.2023 14:56 10,1 C 10,0 C 6,7 C 65 % 1016,0 hPa 0,0 l/m 0 min 0 min 240 W/m 19,3 km/h (3 Bft) 100,00 %
25.04.2023 14:58 10,0 C 10,0 C 6,7 C 66 % 1016,0 hPa 0,0 l/m 0 min 0 min 238 W/m 19,3 km/h (3 Bft) 100,00 %
25.04.2023 15:00 9,9 C 10,0 C 6,7 C 65 % 1016,1 hPa 0,0 l/m 0 min 0 min 244 W/m 22,5 km/h (4 Bft) 100,00 %
25.04.2023 15:02 9,9 C 10,0 C 6,7 C 66 % 1016,1 hPa 0,0 l/m 0 min 0 min 257 W/m 19,3 km/h (3 Bft) 97,87 %
25.04.2023 15:04 9,8 C 10,6 C 6,7 C 66 % 1016,0 hPa 0,0 l/m 0 min 0 min 265 W/m 22,5 km/h (4 Bft) 97,87 %
25.04.2023 15:06 9,8 C 10,6 C 6,7 C 65 % 1016,0 hPa 0,0 l/m 0 min 0 min 262 W/m 16,1 km/h (3 Bft) 96,55 %
25.04.2023 15:08 9,8 C 10,6 C 6,7 C 63 % 1016,1 hPa 0,0 l/m 0 min 0 min 258 W/m 19,3 km/h (3 Bft) 100,00 %
25.04.2023 15:10 9,8 C 10,6 C 6,7 C 62 % 1016,1 hPa 0,0 l/m 0 min 0 min 263 W/m 19,3 km/h (3 Bft) 100,00 %
25.04.2023 15:12 9,8 C 10,0 C 6,7 C 61 % 1016,1 hPa 0,0 l/m 0 min 0 min 266 W/m 25,7 km/h (4 Bft) 100,00 %
25.04.2023 15:14 9,8 C 10,0 C 6,7 C 61 % 1016,0 hPa 0,0 l/m 0 min 0 min 268 W/m 22,5 km/h (4 Bft) 93,62 %
25.04.2023 15:16 9,8 C 10,0 C 6,7 C 62 % 1016,0 hPa 0,0 l/m 0 min 0 min 260 W/m 22,5 km/h (4 Bft) 97,87 %
25.04.2023 15:18 9,8 C 10,0 C 6,7 C 62 % 1016,1 hPa 0,0 l/m 0 min 0 min 250 W/m 12,9 km/h (3 Bft) 97,87 %
25.04.2023 15:20 9,8 C 10,0 C 6,7 C 63 % 1016,1 hPa 0,0 l/m 0 min 0 min 242 W/m 16,1 km/h (3 Bft) 97,87 %
25.04.2023 15:22 9,8 C 10,0 C 6,7 C 63 % 1016,1 hPa 0,0 l/m 0 min 0 min 238 W/m 12,9 km/h (3 Bft) 95,74 %
25.04.2023 15:24 9,8 C 10,0 C 6,1 C 63 % 1016,1 hPa 0,0 l/m 0 min 0 min 237 W/m 16,1 km/h (3 Bft) 95,65 %
25.04.2023 15:26 9,8 C 10,0 C 6,1 C 63 % 1016,1 hPa 0,0 l/m 0 min 0 min 239 W/m 25,7 km/h (4 Bft) 95,74 %
25.04.2023 15:28 9,8 C 10,0 C 6,7 C 64 % 1016,1 hPa 0,0 l/m 0 min 0 min 260 W/m 16,1 km/h (3 Bft) 95,74 %
25.04.2023 15:30 9,8 C 10,0 C 6,7 C 65 % 1016,1 hPa 0,0 l/m 0 min 0 min 299 W/m 22,5 km/h (4 Bft) 95,74 %
25.04.2023 15:32 9,8 C 10,6 C 6,7 C 65 % 1016,1 hPa 0,0 l/m 2 min 0 min 351 W/m 12,9 km/h (3 Bft) 95,74 %
25.04.2023 15:34 9,9 C 11,1 C 6,7 C 66 % 1016,2 hPa 0,0 l/m 0 min 0 min 339 W/m 16,1 km/h (3 Bft) 95,74 %
25.04.2023 15:36 9,9 C 11,1 C 6,7 C 66 % 1016,2 hPa 0,0 l/m 0 min 0 min 324 W/m 16,1 km/h (3 Bft) 93,62 %
25.04.2023 15:38 10,0 C 12,2 C 6,7 C 66 % 1016,2 hPa 0,0 l/m 0 min 0 min 325 W/m 12,9 km/h (3 Bft) 95,65 %
25.04.2023 15:40 10,1 C 12,2 C 6,7 C 67 % 1016,1 hPa 0,0 l/m 2 min 0 min 735 W/m 16,1 km/h (3 Bft) 95,74 %
25.04.2023 15:42 10,2 C 11,7 C 6,7 C 66 % 1016,1 hPa 0,0 l/m 2 min 0 min 419 W/m 12,9 km/h (3 Bft) 95,83 %
25.04.2023 15:44 10,3 C 12,8 C 6,7 C 66 % 1016,2 hPa 0,0 l/m 2 min 0 min 406 W/m 19,3 km/h (3 Bft) 95,74 %
25.04.2023 15:46 10,4 C 13,3 C 6,7 C 67 % 1016,1 hPa 0,0 l/m 2 min 0 min 694 W/m 16,1 km/h (3 Bft) 95,74 %
25.04.2023 15:48 10,6 C 12,2 C 6,7 C 66 % 1016,2 hPa 0,0 l/m 2 min 0 min 673 W/m 22,5 km/h (4 Bft) 95,74 %
25.04.2023 15:50 10,5 C 11,7 C 6,7 C 66 % 1016,2 hPa 0,0 l/m 0 min 0 min 289 W/m 16,1 km/h (3 Bft) 95,74 %
25.04.2023 15:52 10,4 C 11,7 C 6,7 C 65 % 1016,1 hPa 0,0 l/m 0 min 0 min 297 W/m 12,9 km/h (3 Bft) 95,65 %
25.04.2023 15:54 10,4 C 12,2 C 6,7 C 67 % 1016,1 hPa 0,0 l/m 0 min 0 min 310 W/m 19,3 km/h (3 Bft) 91,49 %
25.04.2023 15:56 10,4 C 12,2 C 6,7 C 66 % 1016,1 hPa 0,0 l/m 2 min 0 min 721 W/m 22,5 km/h (4 Bft) 97,87 %
25.04.2023 15:58 10,6 C 13,3 C 7,2 C 66 % 1016,1 hPa 0,0 l/m 2 min 0 min 768 W/m 16,1 km/h (3 Bft) 98,00 %
25.04.2023 16:00 10,7 C 13,9 C 7,2 C 66 % 1016,1 hPa 0,0 l/m 2 min 0 min 840 W/m 12,9 km/h (3 Bft) 95,74 %
25.04.2023 16:02 10,9 C 13,3 C 7,2 C 66 % 1016,1 hPa 0,0 l/m 2 min 0 min 881 W/m 12,9 km/h (3 Bft) 95,74 %
25.04.2023 16:04 10,9 C 12,2 C 7,2 C 65 % 1016,0 hPa 0,0 l/m 2 min 0 min 693 W/m 16,1 km/h (3 Bft) 97,83 %
25.04.2023 16:06 10,8 C 11,7 C 7,2 C 65 % 1016,0 hPa 0,0 l/m 0 min 0 min 285 W/m 12,9 km/h (3 Bft) 97,92 %
25.04.2023 16:08 10,7 C 11,1 C 7,2 C 65 % 1016,1 hPa 0,0 l/m 0 min 0 min 280 W/m 12,9 km/h (3 Bft) 97,22 %
25.04.2023 16:10 10,6 C 11,1 C 7,2 C 66 % 1016,1 hPa 0,0 l/m 0 min 0 min 269 W/m 12,9 km/h (3 Bft) 100,00 %
25.04.2023 16:12 10,6 C 11,1 C 7,2 C 67 % 1016,1 hPa 0,0 l/m 0 min 0 min 272 W/m 16,1 km/h (3 Bft) 100,00 %
25.04.2023 16:14 10,6 C 11,7 C 7,2 C 65 % 1016,1 hPa 0,0 l/m 2 min 0 min 384 W/m 22,5 km/h (4 Bft) 93,62 %
25.04.2023 16:16 10,7 C 12,2 C 7,2 C 66 % 1016,0 hPa 0,0 l/m 2 min 0 min 640 W/m 16,1 km/h (3 Bft) 97,87 %
25.04.2023 16:18 10,7 C 12,8 C 7,2 C 64 % 1016,1 hPa 0,0 l/m 2 min 0 min 631 W/m 22,5 km/h (4 Bft) 100,00 %
25.04.2023 16:20 10,8 C 13,3 C 7,2 C 63 % 1016,1 hPa 0,0 l/m 2 min 0 min 634 W/m 19,3 km/h (3 Bft) 100,00 %
25.04.2023 16:22 11,0 C 13,9 C 7,2 C 63 % 1016,1 hPa 0,0 l/m 2 min 0 min 602 W/m 19,3 km/h (3 Bft) 100,00 %
25.04.2023 16:24 11,2 C 13,9 C 7,8 C 64 % 1016,0 hPa 0,0 l/m 2 min 0 min 531 W/m 16,1 km/h (3 Bft) 100,00 %
25.04.2023 16:26 11,3 C 13,9 C 7,8 C 64 % 1016,0 hPa 0,0 l/m 2 min 0 min 405 W/m 22,5 km/h (4 Bft) 100,00 %
25.04.2023 16:28 11,3 C 13,3 C 7,8 C 62 % 1016,0 hPa 0,0 l/m 2 min 0 min 401 W/m 19,3 km/h (3 Bft) 100,00 %
25.04.2023 16:30 11,2 C 11,7 C 7,2 C 62 % 1016,0 hPa 0,0 l/m 0 min 0 min 157 W/m 19,3 km/h (3 Bft) 100,00 %
25.04.2023 16:32 10,9 C 11,1 C 7,2 C 62 % 1016,0 hPa 0,0 l/m 0 min 0 min 121 W/m 9,7 km/h (2 Bft) 100,00 %
25.04.2023 16:34 10,7 C 11,1 C 6,7 C 63 % 1016,0 hPa 0,0 l/m 0 min 0 min 133 W/m 9,7 km/h (2 Bft) 100,00 %
25.04.2023 16:36 10,6 C 10,6 C 6,7 C 64 % 1016,0 hPa 0,0 l/m 0 min 0 min 131 W/m 16,1 km/h (3 Bft) 100,00 %
25.04.2023 16:38 10,6 C 10,6 C 6,7 C 64 % 1016,1 hPa 0,0 l/m 0 min 0 min 145 W/m 12,9 km/h (3 Bft) 100,00 %
25.04.2023 16:40 10,6 C 12,8 C 6,7 C 65 % 1016,0 hPa 0,0 l/m 2 min 0 min 593 W/m 12,9 km/h (3 Bft) 100,00 %
25.04.2023 16:42 10,8 C 13,9 C 7,2 C 65 % 1016,0 hPa 0,0 l/m 2 min 0 min 704 W/m 9,7 km/h (2 Bft) 100,00 %
25.04.2023 16:44 11,2 C 14,4 C 7,2 C 65 % 1015,9 hPa 0,0 l/m 2 min 0 min 696 W/m 22,5 km/h (4 Bft) 100,00 %
25.04.2023 16:46 11,3 C 15,0 C 7,8 C 64 % 1015,9 hPa 0,0 l/m 2 min 0 min 694 W/m 16,1 km/h (3 Bft) 100,00 %
25.04.2023 16:48 11,4 C 15,6 C 7,8 C 62 % 1016,0 hPa 0,0 l/m 2 min 0 min 693 W/m 16,1 km/h (3 Bft) 100,00 %
25.04.2023 16:50 11,7 C 15,6 C 7,8 C 61 % 1015,9 hPa 0,0 l/m 2 min 0 min 697 W/m 12,9 km/h (3 Bft) 100,00 %
25.04.2023 16:52 11,8 C 15,6 C 8,3 C 60 % 1015,9 hPa 0,0 l/m 2 min 0 min 714 W/m 19,3 km/h (3 Bft) 100,00 %
25.04.2023 16:54 12,1 C 16,7 C 8,9 C 61 % 1016,0 hPa 0,0 l/m 2 min 0 min 728 W/m 12,9 km/h (3 Bft) 97,96 %
25.04.2023 16:56 12,2 C 16,1 C 8,9 C 59 % 1016,0 hPa 0,0 l/m 2 min 0 min 720 W/m 22,5 km/h (4 Bft) 97,87 %
25.04.2023 16:58 12,3 C 16,7 C 8,9 C 58 % 1016,0 hPa 0,0 l/m 2 min 0 min 715 W/m 22,5 km/h (4 Bft) 100,00 %
25.04.2023 17:00 12,5 C 16,1 C 9,4 C 57 % 1015,9 hPa 0,0 l/m 2 min 0 min 666 W/m 12,9 km/h (3 Bft) 100,00 %
25.04.2023 17:02 12,5 C 14,4 C 8,9 C 57 % 1015,9 hPa 0,0 l/m 0 min 0 min 194 W/m 22,5 km/h (4 Bft) 97,87 %
25.04.2023 17:04 12,1 C 12,2 C 8,3 C 57 % 1015,9 hPa 0,0 l/m 0 min 0 min 166 W/m 12,9 km/h (3 Bft) 100,00 %
25.04.2023 17:06 11,8 C 11,7 C 7,8 C 59 % 1016,1 hPa 0,0 l/m 0 min 0 min 169 W/m 41,8 km/h (6 Bft) 100,00 %
25.04.2023 17:08 11,4 C 11,7 C 7,8 C 59 % 1016,1 hPa 0,0 l/m 0 min 0 min 193 W/m 41,8 km/h (6 Bft) 100,00 %
25.04.2023 17:10 11,3 C 13,3 C 7,8 C 60 % 1016,1 hPa 0,0 l/m 2 min 0 min 380 W/m 35,4 km/h (5 Bft) 100,00 %
25.04.2023 17:12 11,3 C 13,9 C 7,8 C 60 % 1016,1 hPa 0,0 l/m 2 min 0 min 655 W/m 22,5 km/h (4 Bft) 97,87 %
25.04.2023 17:14 11,5 C 13,3 C 8,3 C 62 % 1016,2 hPa 0,0 l/m 2 min 0 min 519 W/m 25,7 km/h (4 Bft) 100,00 %
25.04.2023 17:16 11,3 C 12,2 C 7,8 C 61 % 1016,3 hPa 0,0 l/m 0 min 0 min 164 W/m 22,5 km/h (4 Bft) 97,96 %
25.04.2023 17:18 11,1 C 11,7 C 7,8 C 62 % 1016,3 hPa 0,0 l/m 0 min 0 min 227 W/m 29,0 km/h (5 Bft) 100,00 %
25.04.2023 17:20 10,9 C 11,1 C 7,2 C 62 % 1016,3 hPa 0,0 l/m 0 min 0 min 179 W/m 29,0 km/h (5 Bft) 100,00 %
25.04.2023 17:22 10,8 C 12,2 C 7,2 C 62 % 1016,3 hPa 0,0 l/m 0 min 0 min 200 W/m 38,6 km/h (5 Bft) 97,87 %
25.04.2023 17:24 10,9 C 13,9 C 7,8 C 63 % 1016,3 hPa 0,0 l/m 2 min 0 min 604 W/m 25,7 km/h (4 Bft) 97,14 %
25.04.2023 17:26 11,2 C 15,0 C 7,8 C 64 % 1016,3 hPa 0,0 l/m 2 min 0 min 616 W/m 19,3 km/h (3 Bft) 97,87 %
25.04.2023 17:28 11,6 C 15,0 C 8,3 C 64 % 1016,3 hPa 0,0 l/m 2 min 0 min 457 W/m 19,3 km/h (3 Bft) 96,43 %
25.04.2023 17:30 11,7 C 14,4 C 8,3 C 63 % 1016,4 hPa 0,0 l/m 2 min 0 min 262 W/m 19,3 km/h (3 Bft) 95,74 %
25.04.2023 17:32 11,6 C 14,4 C 8,3 C 62 % 1016,3 hPa 0,0 l/m 0 min 0 min 195 W/m 16,1 km/h (3 Bft) 95,65 %
25.04.2023 17:34 11,5 C 13,9 C 8,3 C 61 % 1016,4 hPa 0,0 l/m 0 min 0 min 230 W/m 19,3 km/h (3 Bft) 98,00 %
25.04.2023 17:36 11,4 C 14,4 C 7,8 C 60 % 1016,4 hPa 0,0 l/m 2 min 0 min 315 W/m 12,9 km/h (3 Bft) 97,87 %
25.04.2023 17:38 11,4 C 15,0 C 8,3 C 60 % 1016,4 hPa 0,0 l/m 2 min 0 min 584 W/m 19,3 km/h (3 Bft) 95,74 %
25.04.2023 17:40 11,4 C 14,4 C 8,3 C 58 % 1016,4 hPa 0,0 l/m 2 min 0 min 574 W/m 22,5 km/h (4 Bft) 97,87 %
25.04.2023 17:42 11,4 C 15,0 C 8,3 C 59 % 1016,4 hPa 0,0 l/m 2 min 0 min 550 W/m 19,3 km/h (3 Bft) 97,87 %
25.04.2023 17:44 11,6 C 15,0 C 8,9 C 59 % 1016,5 hPa 0,0 l/m 2 min 0 min 511 W/m 29,0 km/h (5 Bft) 97,83 %
25.04.2023 17:46 11,6 C 15,6 C 8,9 C 58 % 1016,4 hPa 0,0 l/m 2 min 0 min 479 W/m 25,7 km/h (4 Bft) 100,00 %
25.04.2023 17:48 11,7 C 15,0 C 8,9 C 58 % 1016,4 hPa 0,0 l/m 2 min 0 min 464 W/m 41,8 km/h (6 Bft) 97,87 %
25.04.2023 17:50 11,5 C 14,4 C 8,3 C 57 % 1016,4 hPa 0,0 l/m 2 min 0 min 455 W/m 22,5 km/h (4 Bft) 97,87 %
25.04.2023 17:52 11,4 C 14,4 C 8,3 C 59 % 1016,5 hPa 0,0 l/m 2 min 0 min 447 W/m 22,5 km/h (4 Bft) 95,74 %
25.04.2023 17:54 11,3 C 15,0 C 8,3 C 58 % 1016,4 hPa 0,0 l/m 2 min 0 min 443 W/m 19,3 km/h (3 Bft) 93,62 %
25.04.2023 17:56 11,4 C 14,4 C 8,3 C 58 % 1016,5 hPa 0,0 l/m 2 min 0 min 438 W/m 19,3 km/h (3 Bft) 93,62 %
25.04.2023 17:58 11,5 C 15,6 C 8,3 C 59 % 1016,4 hPa 0,0 l/m 2 min 0 min 426 W/m 12,9 km/h (3 Bft) 93,48 %
25.04.2023 18:00 11,7 C 15,6 C 8,3 C 59 % 1016,4 hPa 0,0 l/m 2 min 0 min 420 W/m 16,1 km/h (3 Bft) 89,36 %
25.04.2023 18:02 11,7 C 15,0 C 8,3 C 59 % 1016,4 hPa 0,0 l/m 2 min 0 min 374 W/m 19,3 km/h (3 Bft) 93,62 %
25.04.2023 18:04 11,5 C 14,4 C 8,3 C 58 % 1016,4 hPa 0,0 l/m 2 min 0 min 423 W/m 22,5 km/h (4 Bft) 93,62 %
25.04.2023 18:07 11,3 C 13,3 C 7,8 C 59 % 1016,4 hPa 0,0 l/m 3 min 0 min 280 W/m 22,5 km/h (4 Bft) 91,67 %
25.04.2023 18:08 11,2 C 12,8 C 7,8 C 60 % 1016,4 hPa 0,0 l/m 1 min 0 min 328 W/m 19,3 km/h (3 Bft) 91,67 %
25.04.2023 18:12 10,8 C 11,7 C 7,2 C 62 % 1016,5 hPa 0,0 l/m 4 min 0 min 314 W/m 16,1 km/h (3 Bft) 93,10 %
25.04.2023 18:16 10,7 C 12,8 C 7,2 C 62 % 1016,5 hPa 0,0 l/m 4 min 0 min 321 W/m 25,7 km/h (4 Bft) 91,49 %
25.04.2023 18:18 10,8 C 13,9 C 7,8 C 61 % 1016,5 hPa 0,0 l/m 2 min 0 min 417 W/m 16,1 km/h (3 Bft) 91,49 %
25.04.2023 18:20 10,9 C 14,4 C 7,8 C 60 % 1016,6 hPa 0,0 l/m 2 min 0 min 404 W/m 29,0 km/h (5 Bft) 93,62 %
25.04.2023 18:22 11,1 C 14,4 C 8,3 C 59 % 1016,5 hPa 0,0 l/m 2 min 0 min 412 W/m 22,5 km/h (4 Bft) 91,49 %
25.04.2023 18:24 11,1 C 14,4 C 7,8 C 58 % 1016,5 hPa 0,0 l/m 2 min 0 min 408 W/m 22,5 km/h (4 Bft) 95,74 %
25.04.2023 18:26 11,1 C 14,4 C 7,8 C 59 % 1016,5 hPa 0,0 l/m 2 min 0 min 395 W/m 19,3 km/h (3 Bft) 97,87 %
25.04.2023 18:28 11,1 C 14,4 C 7,8 C 58 % 1016,6 hPa 0,0 l/m 2 min 0 min 388 W/m 22,5 km/h (4 Bft) 95,74 %
25.04.2023 18:30 11,0 C 14,4 C 7,8 C 59 % 1016,5 hPa 0,0 l/m 2 min 0 min 380 W/m 19,3 km/h (3 Bft) 95,65 %
25.04.2023 18:32 11,1 C 14,4 C 7,8 C 59 % 1016,6 hPa 0,0 l/m 2 min 0 min 365 W/m 19,3 km/h (3 Bft) 95,74 %
25.04.2023 18:34 11,1 C 14,4 C 7,2 C 60 % 1016,5 hPa 0,0 l/m 2 min 0 min 344 W/m 16,1 km/h (3 Bft) 95,74 %
25.04.2023 18:36 11,1 C 13,9 C 7,2 C 59 % 1016,6 hPa 0,0 l/m 2 min 0 min 322 W/m 19,3 km/h (3 Bft) 97,87 %
25.04.2023 18:38 11,0 C 13,9 C 7,2 C 58 % 1016,5 hPa 0,0 l/m 2 min 0 min 302 W/m 35,4 km/h (5 Bft) 100,00 %
25.04.2023 18:40 10,9 C 13,3 C 7,2 C 59 % 1016,5 hPa 0,0 l/m 2 min 0 min 290 W/m 16,1 km/h (3 Bft) 97,87 %
25.04.2023 18:42 10,8 C 11,7 C 7,2 C 59 % 1016,5 hPa 0,0 l/m 2 min 0 min 278 W/m 22,5 km/h (4 Bft) 97,83 %
25.04.2023 18:44 10,8 C 11,1 C 7,2 C 59 % 1016,6 hPa 0,0 l/m 2 min 0 min 270 W/m 22,5 km/h (4 Bft) 97,87 %
25.04.2023 18:46 10,7 C 10,6 C 6,7 C 58 % 1016,6 hPa 0,0 l/m 2 min 0 min 237 W/m 22,5 km/h (4 Bft) 100,00 %
25.04.2023 18:48 10,6 C 10,6 C 6,7 C 60 % 1016,5 hPa 0,0 l/m 2 min 0 min 243 W/m 19,3 km/h (3 Bft) 100,00 %
25.04.2023 18:50 10,5 C 10,0 C 6,7 C 60 % 1016,5 hPa 0,0 l/m 2 min 0 min 198 W/m 12,9 km/h (3 Bft) 100,00 %
25.04.2023 18:52 10,4 C 10,0 C 6,7 C 61 % 1016,5 hPa 0,0 l/m 2 min 0 min 240 W/m 16,1 km/h (3 Bft) 97,87 %
25.04.2023 18:54 10,4 C 10,0 C 6,7 C 60 % 1016,6 hPa 0,0 l/m 2 min 0 min 236 W/m 16,1 km/h (3 Bft) 100,00 %
25.04.2023 18:56 10,4 C 10,0 C 6,7 C 61 % 1016,5 hPa 0,0 l/m 2 min 0 min 204 W/m 16,1 km/h (3 Bft) 100,00 %
25.04.2023 18:58 10,4 C 10,0 C 6,7 C 60 % 1016,6 hPa 0,0 l/m 0 min 0 min 107 W/m 12,9 km/h (3 Bft) 100,00 %
25.04.2023 19:00 10,5 C 10,6 C 6,7 C 62 % 1016,6 hPa 0,0 l/m 0 min 0 min 69 W/m 16,1 km/h (3 Bft) 100,00 %
25.04.2023 19:02 10,5 C 10,0 C 6,7 C 62 % 1016,6 hPa 0,0 l/m 0 min 0 min 65 W/m 19,3 km/h (3 Bft) 97,87 %
25.04.2023 19:04 10,5 C 10,0 C 6,7 C 62 % 1016,6 hPa 0,0 l/m 0 min 0 min 64 W/m 35,4 km/h (5 Bft) 100,00 %
25.04.2023 19:06 10,4 C 10,0 C 6,7 C 58 % 1016,6 hPa 0,0 l/m 0 min 0 min 62 W/m 22,5 km/h (4 Bft) 100,00 %
25.04.2023 19:08 10,4 C 10,0 C 6,7 C 57 % 1016,6 hPa 0,0 l/m 0 min 0 min 61 W/m 19,3 km/h (3 Bft) 100,00 %
25.04.2023 19:10 10,4 C 10,0 C 6,7 C 57 % 1016,6 hPa 0,0 l/m 0 min 0 min 59 W/m 22,5 km/h (4 Bft) 97,83 %
25.04.2023 19:12 10,4 C 10,0 C 6,1 C 57 % 1016,6 hPa 0,0 l/m 0 min 0 min 58 W/m 22,5 km/h (4 Bft) 97,87 %
25.04.2023 19:14 10,4 C 10,0 C 6,1 C 57 % 1016,7 hPa 0,0 l/m 0 min 0 min 58 W/m 19,3 km/h (3 Bft) 100,00 %
25.04.2023 19:16 10,3 C 10,0 C 6,1 C 58 % 1016,7 hPa 0,0 l/m 0 min 0 min 58 W/m 22,5 km/h (4 Bft) 100,00 %
25.04.2023 19:18 10,3 C 10,0 C 6,1 C 58 % 1016,7 hPa 0,0 l/m 0 min 0 min 57 W/m 19,3 km/h (3 Bft) 100,00 %
25.04.2023 19:20 10,3 C 10,0 C 6,1 C 58 % 1016,7 hPa 0,0 l/m 0 min 0 min 54 W/m 22,5 km/h (4 Bft) 100,00 %
25.04.2023 19:22 10,2 C 9,4 C 6,1 C 58 % 1016,8 hPa 0,0 l/m 0 min 0 min 51 W/m 19,3 km/h (3 Bft) 100,00 %
25.04.2023 19:24 10,2 C 9,4 C 6,1 C 58 % 1016,8 hPa 0,0 l/m 0 min 0 min 47 W/m 25,7 km/h (4 Bft) 97,83 %
25.04.2023 19:26 10,1 C 9,4 C 5,6 C 59 % 1016,8 hPa 0,0 l/m 0 min 0 min 47 W/m 19,3 km/h (3 Bft) 100,00 %
25.04.2023 19:28 10,0 C 9,4 C 5,6 C 60 % 1016,8 hPa 0,0 l/m 0 min 0 min 47 W/m 19,3 km/h (3 Bft) 100,00 %
25.04.2023 19:30 9,9 C 8,9 C 5,6 C 60 % 1016,9 hPa 0,0 l/m 0 min 0 min 47 W/m 19,3 km/h (3 Bft) 100,00 %
25.04.2023 19:32 9,8 C 8,9 C 5,6 C 61 % 1016,9 hPa 0,0 l/m 0 min 0 min 46 W/m 12,9 km/h (3 Bft) 100,00 %
25.04.2023 19:34 9,7 C 8,9 C 5,6 C 61 % 1016,9 hPa 0,0 l/m 0 min 0 min 43 W/m 12,9 km/h (3 Bft) 97,87 %
25.04.2023 19:36 9,6 C 8,9 C 5,0 C 62 % 1017,0 hPa 0,0 l/m 0 min 0 min 41 W/m 9,7 km/h (2 Bft) 97,87 %
25.04.2023 19:38 9,5 C 8,3 C 5,0 C 63 % 1017,0 hPa 0,0 l/m 0 min 0 min 43 W/m 12,9 km/h (3 Bft) 100,00 %
25.04.2023 19:40 9,4 C 8,3 C 5,0 C 63 % 1017,0 hPa 0,0 l/m 0 min 0 min 47 W/m 9,7 km/h (2 Bft) 100,00 %
25.04.2023 19:42 9,3 C 8,3 C 5,0 C 63 % 1017,1 hPa 0,0 l/m 0 min 0 min 47 W/m 9,7 km/h (2 Bft) 100,00 %
25.04.2023 19:44 9,3 C 8,3 C 5,0 C 64 % 1017,0 hPa 0,0 l/m 0 min 0 min 44 W/m 9,7 km/h (2 Bft) 100,00 %
25.04.2023 19:46 9,2 C 8,3 C 5,0 C 64 % 1017,0 hPa 0,0 l/m 0 min 0 min 39 W/m 9,7 km/h (2 Bft) 97,87 %
25.04.2023 19:48 9,2 C 8,3 C 5,0 C 65 % 1017,1 hPa 0,0 l/m 0 min 0 min 37 W/m 16,1 km/h (3 Bft) 100,00 %
25.04.2023 19:50 9,1 C 8,3 C 5,0 C 65 % 1017,1 hPa 0,0 l/m 0 min 0 min 36 W/m 16,1 km/h (3 Bft) 100,00 %
25.04.2023 19:52 9,1 C 8,3 C 5,0 C 65 % 1017,1 hPa 0,0 l/m 0 min 0 min 34 W/m 22,5 km/h (4 Bft) 97,83 %
25.04.2023 19:54 9,1 C 8,3 C 4,4 C 66 % 1017,2 hPa 0,0 l/m 0 min 0 min 34 W/m 9,7 km/h (2 Bft) 100,00 %
25.04.2023 19:56 9,0 C 8,3 C 4,4 C 66 % 1017,2 hPa 0,0 l/m 0 min 0 min 34 W/m 16,1 km/h (3 Bft) 97,87 %
25.04.2023 19:58 8,9 C 8,3 C 4,4 C 67 % 1017,2 hPa 0,0 l/m 0 min 0 min 32 W/m 16,1 km/h (3 Bft) 97,87 %
25.04.2023 20:00 8,9 C 7,8 C 4,4 C 67 % 1017,2 hPa 0,0 l/m 0 min 0 min 30 W/m 12,9 km/h (3 Bft) 97,87 %
25.04.2023 20:02 8,8 C 7,8 C 4,4 C 67 % 1017,2 hPa 0,0 l/m 0 min 0 min 28 W/m 22,5 km/h (4 Bft) 100,00 %
25.04.2023 20:04 8,8 C 7,8 C 4,4 C 67 % 1017,3 hPa 0,0 l/m 0 min 0 min 31 W/m 16,1 km/h (3 Bft) 100,00 %
25.04.2023 20:06 8,8 C 7,8 C 4,4 C 67 % 1017,3 hPa 0,0 l/m 0 min 0 min 32 W/m 16,1 km/h (3 Bft) 100,00 %
25.04.2023 20:08 8,7 C 7,8 C 4,4 C 67 % 1017,3 hPa 0,0 l/m 0 min 0 min 32 W/m 12,9 km/h (3 Bft) 95,74 %
25.04.2023 20:10 8,7 C 7,8 C 4,4 C 67 % 1017,4 hPa 0,0 l/m 0 min 0 min 31 W/m 9,7 km/h (2 Bft) 97,87 %
25.04.2023 20:12 8,7 C 8,3 C 4,4 C 66 % 1017,4 hPa 0,0 l/m 0 min 0 min 28 W/m 22,5 km/h (4 Bft) 97,87 %
25.04.2023 20:14 8,7 C 8,3 C 4,4 C 66 % 1017,4 hPa 0,0 l/m 0 min 0 min 25 W/m 19,3 km/h (3 Bft) 95,74 %
25.04.2023 20:16 8,7 C 8,3 C 4,4 C 65 % 1017,3 hPa 0,0 l/m 0 min 0 min 22 W/m 16,1 km/h (3 Bft) 95,74 %
25.04.2023 20:18 8,7 C 7,8 C 4,4 C 65 % 1017,3 hPa 0,0 l/m 0 min 0 min 19 W/m 25,7 km/h (4 Bft) 93,62 %
25.04.2023 20:20 8,7 C 7,8 C 4,4 C 65 % 1017,4 hPa 0,0 l/m 0 min 0 min 18 W/m 9,7 km/h (2 Bft) 95,74 %
25.04.2023 20:22 8,7 C 7,8 C 4,4 C 65 % 1017,5 hPa 0,0 l/m 0 min 0 min 19 W/m 16,1 km/h (3 Bft) 95,65 %
25.04.2023 20:24 8,6 C 7,8 C 4,4 C 66 % 1017,5 hPa 0,0 l/m 0 min 0 min 19 W/m 29,0 km/h (5 Bft) 95,74 %
25.04.2023 20:26 8,6 C 7,8 C 4,4 C 65 % 1017,5 hPa 0,0 l/m 0 min 0 min 19 W/m 22,5 km/h (4 Bft) 93,62 %
25.04.2023 20:28 8,6 C 7,8 C 4,4 C 66 % 1017,5 hPa 0,0 l/m 0 min 0 min 18 W/m 12,9 km/h (3 Bft) 93,62 %
25.04.2023 20:30 8,6 C 7,8 C 4,4 C 66 % 1017,6 hPa 0,0 l/m 0 min 0 min 16 W/m 12,9 km/h (3 Bft) 95,74 %
25.04.2023 20:32 8,6 C 7,8 C 4,4 C 66 % 1017,6 hPa 0,0 l/m 0 min 0 min 14 W/m 6,4 km/h (2 Bft) 93,62 %
25.04.2023 20:34 8,6 C 7,8 C 4,4 C 66 % 1017,6 hPa 0,0 l/m 0 min 0 min 13 W/m 22,5 km/h (4 Bft) 97,87 %
25.04.2023 20:36 8,6 C 7,8 C 4,4 C 67 % 1017,6 hPa 0,0 l/m 0 min 0 min 12 W/m 9,7 km/h (2 Bft) 93,48 %
25.04.2023 20:38 8,6 C 7,8 C 4,4 C 67 % 1017,6 hPa 0,0 l/m 0 min 0 min 12 W/m 16,1 km/h (3 Bft) 95,74 %
25.04.2023 20:40 8,6 C 7,8 C 4,4 C 67 % 1017,6 hPa 0,0 l/m 0 min 0 min 11 W/m 16,1 km/h (3 Bft) 95,74 %
25.04.2023 20:42 8,6 C 7,8 C 4,4 C 67 % 1017,6 hPa 0,0 l/m 0 min 0 min 9 W/m 12,9 km/h (3 Bft) 93,62 %
25.04.2023 20:44 8,6 C 7,8 C 4,4 C 68 % 1017,7 hPa 0,0 l/m 0 min 0 min 7 W/m 12,9 km/h (3 Bft) 95,74 %
25.04.2023 20:46 8,6 C 7,8 C 4,4 C 68 % 1017,7 hPa 0,0 l/m 0 min 0 min 5 W/m 9,7 km/h (2 Bft) 93,62 %
25.04.2023 20:48 8,6 C 7,8 C 4,4 C 68 % 1017,7 hPa 0,0 l/m 0 min 0 min 5 W/m 12,9 km/h (3 Bft) 84,78 %
25.04.2023 20:50 8,6 C 7,8 C 4,4 C 68 % 1017,8 hPa 0,0 l/m 0 min 0 min 2 W/m 16,1 km/h (3 Bft) 95,74 %
25.04.2023 20:52 8,6 C 7,8 C 4,4 C 69 % 1017,8 hPa 0,0 l/m 0 min 0 min 0 W/m 12,9 km/h (3 Bft) 97,87 %
25.04.2023 20:54 8,6 C 7,8 C 4,4 C 69 % 1017,9 hPa 0,0 l/m 0 min 0 min 0 W/m 12,9 km/h (3 Bft) 95,74 %
25.04.2023 20:56 8,6 C 7,8 C 4,4 C 69 % 1017,9 hPa 0,0 l/m 0 min 0 min 0 W/m 12,9 km/h (3 Bft) 100,00 %
25.04.2023 20:58 8,6 C 7,8 C 4,4 C 69 % 1017,9 hPa 0,0 l/m 0 min 0 min 0 W/m 12,9 km/h (3 Bft) 97,87 %
25.04.2023 21:00 8,6 C 7,8 C 4,4 C 69 % 1018,0 hPa 0,0 l/m 0 min 0 min 0 W/m 9,7 km/h (2 Bft) 95,74 %
25.04.2023 21:02 8,6 C 7,8 C 4,4 C 69 % 1017,9 hPa 0,0 l/m 0 min 0 min 0 W/m 16,1 km/h (3 Bft) 97,83 %
25.04.2023 21:04 8,5 C 7,8 C 4,4 C 69 % 1018,0 hPa 0,0 l/m 0 min 0 min 0 W/m 12,9 km/h (3 Bft) 97,87 %
25.04.2023 21:06 8,5 C 7,8 C 3,9 C 69 % 1018,0 hPa 0,0 l/m 0 min 0 min 0 W/m 12,9 km/h (3 Bft) 93,62 %
25.04.2023 21:08 8,5 C 7,8 C 3,9 C 70 % 1018,0 hPa 0,0 l/m 0 min 0 min 0 W/m 16,1 km/h (3 Bft) 95,74 %
25.04.2023 21:10 8,4 C 7,8 C 3,9 C 70 % 1018,0 hPa 0,0 l/m 0 min 0 min 0 W/m 9,7 km/h (2 Bft) 97,87 %
25.04.2023 21:12 8,4 C 7,2 C 3,9 C 70 % 1018,0 hPa 0,0 l/m 0 min 0 min 0 W/m 19,3 km/h (3 Bft) 95,74 %
25.04.2023 21:14 8,4 C 7,2 C 3,9 C 70 % 1018,0 hPa 0,0 l/m 0 min 0 min 0 W/m 12,9 km/h (3 Bft) 97,87 %
25.04.2023 21:16 8,3 C 7,2 C 3,9 C 70 % 1018,1 hPa 0,0 l/m 0 min 0 min 0 W/m 9,7 km/h (2 Bft) 97,83 %
25.04.2023 21:18 8,3 C 7,2 C 3,9 C 70 % 1018,1 hPa 0,0 l/m 0 min 0 min 0 W/m 6,4 km/h (2 Bft) 95,74 %
25.04.2023 21:20 8,3 C 7,2 C 3,9 C 70 % 1018,2 hPa 0,0 l/m 0 min 0 min 0 W/m 9,7 km/h (2 Bft) 97,87 %
25.04.2023 21:22 8,3 C 7,2 C 3,9 C 70 % 1018,2 hPa 0,0 l/m 0 min 0 min 0 W/m 12,9 km/h (3 Bft) 95,74 %
25.04.2023 21:24 8,3 C 7,2 C 3,9 C 69 % 1018,2 hPa 0,0 l/m 0 min 0 min 0 W/m 12,9 km/h (3 Bft) 93,62 %
25.04.2023 21:26 8,2 C 7,2 C 3,9 C 69 % 1018,2 hPa 0,0 l/m 0 min 0 min 0 W/m 9,7 km/h (2 Bft) 95,74 %
25.04.2023 21:28 8,2 C 7,2 C 3,9 C 69 % 1018,2 hPa 0,0 l/m 0 min 0 min 0 W/m 9,7 km/h (2 Bft) 95,74 %
25.04.2023 21:30 8,2 C 7,2 C 3,9 C 70 % 1018,3 hPa 0,0 l/m 0 min 0 min 0 W/m 3,2 km/h (1 Bft) 95,74 %
25.04.2023 21:32 8,2 C 7,2 C 3,3 C 70 % 1018,3 hPa 0,0 l/m 0 min 0 min 0 W/m 12,9 km/h (3 Bft) 97,83 %
25.04.2023 21:34 8,1 C 7,2 C 3,3 C 70 % 1018,3 hPa 0,0 l/m 0 min 0 min 0 W/m 0,0 km/h (0 Bft) 97,87 %
25.04.2023 21:36 8,1 C 7,2 C 3,3 C 70 % 1018,3 hPa 0,0 l/m 0 min 0 min 0 W/m 6,4 km/h (2 Bft) 93,62 %
25.04.2023 21:38 8,1 C 6,7 C 3,3 C 70 % 1018,3 hPa 0,0 l/m 0 min 0 min 0 W/m 6,4 km/h (2 Bft) 100,00 %
25.04.2023 21:40 8,0 C 6,7 C 3,3 C 70 % 1018,3 hPa 0,0 l/m 0 min 0 min 0 W/m 6,4 km/h (2 Bft) 100,00 %
25.04.2023 21:42 8,0 C 6,7 C 3,3 C 70 % 1018,3 hPa 0,0 l/m 0 min 0 min 0 W/m 6,4 km/h (2 Bft) 97,87 %
25.04.2023 21:44 7,9 C 6,7 C 3,3 C 70 % 1018,3 hPa 0,0 l/m 0 min 0 min 0 W/m 6,4 km/h (2 Bft) 95,74 %
25.04.2023 21:46 7,9 C 6,7 C 3,3 C 70 % 1018,2 hPa 0,0 l/m 0 min 0 min 0 W/m 9,7 km/h (2 Bft) 97,83 %
25.04.2023 21:48 7,9 C 6,7 C 2,8 C 70 % 1018,3 hPa 0,0 l/m 0 min 0 min 0 W/m 9,7 km/h (2 Bft) 100,00 %
25.04.2023 21:50 7,8 C 6,7 C 2,8 C 70 % 1018,3 hPa 0,0 l/m 0 min 0 min 0 W/m 6,4 km/h (2 Bft) 95,74 %
25.04.2023 21:52 7,8 C 6,7 C 2,8 C 70 % 1018,3 hPa 0,0 l/m 0 min 0 min 0 W/m 6,4 km/h (2 Bft) 97,87 %
25.04.2023 21:54 7,8 C 6,7 C 2,8 C 70 % 1018,3 hPa 0,0 l/m 0 min 0 min 0 W/m 6,4 km/h (2 Bft) 95,74 %
25.04.2023 21:56 7,7 C 6,1 C 2,8 C 70 % 1018,3 hPa 0,0 l/m 0 min 0 min 0 W/m 9,7 km/h (2 Bft) 97,87 %
25.04.2023 21:58 7,7 C 6,1 C 2,8 C 70 % 1018,4 hPa 0,0 l/m 0 min 0 min 0 W/m 9,7 km/h (2 Bft) 54,55 %
25.04.2023 22:00 7,6 C 6,1 C 2,8 C 71 % 1018,3 hPa 0,0 l/m 0 min 0 min 0 W/m 9,7 km/h (2 Bft) 97,83 %
25.04.2023 22:02 7,6 C 6,1 C 2,8 C 71 % 1018,4 hPa 0,0 l/m 0 min 0 min 0 W/m 12,9 km/h (3 Bft) 97,87 %
25.04.2023 22:04 7,5 C 6,1 C 2,8 C 71 % 1018,4 hPa 0,0 l/m 0 min 0 min 0 W/m 12,9 km/h (3 Bft) 95,74 %
25.04.2023 22:06 7,4 C 6,1 C 2,8 C 71 % 1018,4 hPa 0,0 l/m 0 min 0 min 0 W/m 6,4 km/h (2 Bft) 97,87 %
25.04.2023 22:08 7,3 C 6,1 C 2,8 C 71 % 1018,4 hPa 0,0 l/m 0 min 0 min 0 W/m 9,7 km/h (2 Bft) 97,87 %
25.04.2023 22:10 7,3 C 6,1 C 2,8 C 72 % 1018,5 hPa 0,0 l/m 0 min 0 min 0 W/m 9,7 km/h (2 Bft) 97,87 %
25.04.2023 22:12 7,3 C 6,1 C 2,8 C 72 % 1018,5 hPa 0,0 l/m 0 min 0 min 0 W/m 9,7 km/h (2 Bft) 97,62 %
25.04.2023 22:14 7,3 C 6,1 C 2,8 C 72 % 1018,5 hPa 0,0 l/m 0 min 0 min 0 W/m 6,4 km/h (2 Bft) 93,62 %
25.04.2023 22:16 7,2 C 6,1 C 2,8 C 72 % 1018,5 hPa 0,0 l/m 0 min 0 min 0 W/m 3,2 km/h (1 Bft) 95,92 %
25.04.2023 22:18 7,2 C 6,1 C 2,2 C 72 % 1018,6 hPa 0,0 l/m 0 min 0 min 0 W/m 0,0 km/h (0 Bft) 100,00 %
25.04.2023 22:20 7,2 C 6,1 C 2,2 C 72 % 1018,6 hPa 0,0 l/m 0 min 0 min 0 W/m 0,0 km/h (0 Bft) 97,83 %
25.04.2023 22:22 7,1 C 6,1 C 2,2 C 72 % 1018,6 hPa 0,0 l/m 0 min 0 min 0 W/m 0,0 km/h (0 Bft) 100,00 %
25.04.2023 22:24 7,1 C 5,6 C 2,2 C 72 % 1018,6 hPa 0,0 l/m 0 min 0 min 0 W/m 0,0 km/h (0 Bft) 100,00 %
25.04.2023 22:26 7,1 C 5,6 C 2,2 C 73 % 1018,6 hPa 0,0 l/m 0 min 0 min 0 W/m 0,0 km/h (0 Bft) 98,00 %
25.04.2023 22:28 7,0 C 5,6 C 2,2 C 73 % 1018,6 hPa 0,0 l/m 0 min 0 min 0 W/m 0,0 km/h (0 Bft) 97,87 %
25.04.2023 22:30 6,9 C 5,6 C 2,2 C 73 % 1018,6 hPa 0,0 l/m 0 min 0 min 0 W/m 3,2 km/h (1 Bft) 100,00 %
25.04.2023 22:32 6,9 C 5,6 C 2,2 C 73 % 1018,6 hPa 0,0 l/m 0 min 0 min 0 W/m 3,2 km/h (1 Bft) 97,83 %
25.04.2023 22:34 6,9 C 5,6 C 2,2 C 73 % 1018,6 hPa 0,0 l/m 0 min 0 min 0 W/m 6,4 km/h (2 Bft) 97,87 %
25.04.2023 22:36 6,8 C 5,6 C 2,2 C 73 % 1018,6 hPa 0,0 l/m 0 min 0 min 0 W/m 6,4 km/h (2 Bft) 97,87 %
25.04.2023 22:38 6,8 C 5,6 C 2,2 C 73 % 1018,7 hPa 0,0 l/m 0 min 0 min 0 W/m 3,2 km/h (1 Bft) 95,74 %
25.04.2023 22:40 6,7 C 5,6 C 1,7 C 73 % 1018,6 hPa 0,0 l/m 0 min 0 min 0 W/m 6,4 km/h (2 Bft) 97,87 %
25.04.2023 22:42 6,7 C 5,0 C 1,7 C 73 % 1018,6 hPa 0,0 l/m 0 min 0 min 0 W/m 6,4 km/h (2 Bft) 97,87 %
25.04.2023 22:44 6,7 C 5,0 C 1,7 C 74 % 1018,6 hPa 0,0 l/m 0 min 0 min 0 W/m 3,2 km/h (1 Bft) 97,87 %
25.04.2023 22:46 6,6 C 5,0 C 1,7 C 74 % 1018,7 hPa 0,0 l/m 0 min 0 min 0 W/m 3,2 km/h (1 Bft) 97,83 %
25.04.2023 22:48 6,6 C 5,0 C 1,7 C 74 % 1018,7 hPa 0,0 l/m 0 min 0 min 0 W/m 3,2 km/h (1 Bft) 97,87 %
25.04.2023 22:50 6,5 C 5,0 C 1,7 C 74 % 1018,6 hPa 0,0 l/m 0 min 0 min 0 W/m 3,2 km/h (1 Bft) 97,92 %
25.04.2023 22:52 6,5 C 5,0 C 1,7 C 74 % 1018,6 hPa 0,0 l/m 0 min 0 min 0 W/m 3,2 km/h (1 Bft) 97,87 %
25.04.2023 22:54 6,4 C 5,0 C 1,7 C 74 % 1018,6 hPa 0,0 l/m 0 min 0 min 0 W/m 3,2 km/h (1 Bft) 97,87 %
25.04.2023 22:56 6,4 C 5,0 C 1,7 C 74 % 1018,6 hPa 0,0 l/m 0 min 0 min 0 W/m 3,2 km/h (1 Bft) 95,74 %
25.04.2023 22:58 6,4 C 4,4 C 1,7 C 74 % 1018,6 hPa 0,0 l/m 0 min 0 min 0 W/m 0,0 km/h (0 Bft) 97,87 %
25.04.2023 23:00 6,3 C 4,4 C 1,7 C 74 % 1018,7 hPa 0,0 l/m 0 min 0 min 0 W/m 3,2 km/h (1 Bft) 97,37 %
25.04.2023 23:02 6,3 C 4,4 C 1,7 C 75 % 1018,7 hPa 0,0 l/m 0 min 0 min 0 W/m 0,0 km/h (0 Bft) 97,87 %
25.04.2023 23:04 6,3 C 4,4 C 1,1 C 75 % 1018,7 hPa 0,0 l/m 0 min 0 min 0 W/m 0,0 km/h (0 Bft) 54,35 %
25.04.2023 23:06 6,2 C 4,4 C 1,1 C 75 % 1018,7 hPa 0,0 l/m 0 min 0 min 0 W/m 6,4 km/h (2 Bft) 100,00 %
25.04.2023 23:08 6,1 C 4,4 C 1,1 C 75 % 1018,7 hPa 0,0 l/m 0 min 0 min 0 W/m 3,2 km/h (1 Bft) 100,00 %
25.04.2023 23:10 6,1 C 4,4 C 1,1 C 75 % 1018,7 hPa 0,0 l/m 0 min 0 min 0 W/m 3,2 km/h (1 Bft) 100,00 %
25.04.2023 23:12 6,1 C 4,4 C 1,1 C 75 % 1018,7 hPa 0,0 l/m 0 min 0 min 0 W/m 3,2 km/h (1 Bft) 97,92 %
25.04.2023 23:14 6,0 C 4,4 C 1,1 C 75 % 1018,7 hPa 0,0 l/m 0 min 0 min 0 W/m 3,2 km/h (1 Bft) 100,00 %
25.04.2023 23:16 5,9 C 4,4 C 1,1 C 76 % 1018,7 hPa 0,0 l/m 0 min 0 min 0 W/m 3,2 km/h (1 Bft) 100,00 %
25.04.2023 23:18 5,9 C 4,4 C 1,1 C 76 % 1018,7 hPa 0,0 l/m 0 min 0 min 0 W/m 0,0 km/h (0 Bft) 97,87 %
25.04.2023 23:20 5,9 C 4,4 C 1,1 C 76 % 1018,8 hPa 0,0 l/m 0 min 0 min 0 W/m 0,0 km/h (0 Bft) 100,00 %
25.04.2023 23:22 5,8 C 4,4 C 1,1 C 76 % 1018,8 hPa 0,0 l/m 0 min 0 min 0 W/m 3,2 km/h (1 Bft) 95,83 %
25.04.2023 23:24 5,8 C 4,4 C 1,1 C 77 % 1018,8 hPa 0,0 l/m 0 min 0 min 0 W/m 0,0 km/h (0 Bft) 97,87 %
25.04.2023 23:26 5,7 C 3,9 C 1,1 C 77 % 1018,8 hPa 0,0 l/m 0 min 0 min 0 W/m 0,0 km/h (0 Bft) 93,62 %
25.04.2023 23:28 5,7 C 3,9 C 1,1 C 77 % 1018,9 hPa 0,0 l/m 0 min 0 min 0 W/m 0,0 km/h (0 Bft) 97,87 %
25.04.2023 23:30 5,6 C 4,4 C 1,1 C 78 % 1018,9 hPa 0,0 l/m 0 min 0 min 0 W/m 0,0 km/h (0 Bft) 95,65 %
25.04.2023 23:32 5,6 C 3,9 C 1,1 C 78 % 1018,9 hPa 0,0 l/m 0 min 0 min 0 W/m 0,0 km/h (0 Bft) 97,92 %
25.04.2023 23:34 5,6 C 3,9 C 0,6 C 78 % 1018,9 hPa 0,0 l/m 0 min 0 min 0 W/m 0,0 km/h (0 Bft) 95,74 %
25.04.2023 23:36 5,6 C 3,9 C 0,6 C 78 % 1018,9 hPa 0,0 l/m 0 min 0 min 0 W/m 0,0 km/h (0 Bft) 95,74 %
25.04.2023 23:38 5,5 C 3,9 C 0,6 C 78 % 1018,9 hPa 0,0 l/m 0 min 0 min 0 W/m 0,0 km/h (0 Bft) 95,65 %
25.04.2023 23:40 5,4 C 3,9 C 0,6 C 78 % 1018,9 hPa 0,0 l/m 0 min 0 min 0 W/m 0,0 km/h (0 Bft) 97,87 %
25.04.2023 23:42 5,4 C 3,9 C 0,6 C 79 % 1018,9 hPa 0,0 l/m 0 min 0 min 0 W/m 0,0 km/h (0 Bft) 97,22 %
25.04.2023 23:44 5,4 C 3,9 C 0,6 C 79 % 1018,9 hPa 0,0 l/m 0 min 0 min 0 W/m 0,0 km/h (0 Bft) 97,83 %
25.04.2023 23:46 5,3 C 3,9 C 0,6 C 79 % 1018,9 hPa 0,0 l/m 0 min 0 min 0 W/m 0,0 km/h (0 Bft) 95,74 %
25.04.2023 23:48 5,3 C 3,9 C 0,6 C 79 % 1018,9 hPa 0,0 l/m 0 min 0 min 0 W/m 0,0 km/h (0 Bft) 100,00 %
25.04.2023 23:50 5,3 C 3,3 C 0,6 C 79 % 1018,9 hPa 0,0 l/m 0 min 0 min 0 W/m 0,0 km/h (0 Bft) 100,00 %
25.04.2023 23:52 5,2 C 3,3 C 0,6 C 80 % 1018,9 hPa 0,0 l/m 0 min 0 min 0 W/m 0,0 km/h (0 Bft) 97,87 %
25.04.2023 23:54 5,2 C 3,3 C 0,6 C 80 % 1018,9 hPa 0,0 l/m 0 min 0 min 0 W/m 0,0 km/h (0 Bft) 100,00 %
25.04.2023 23:56 5,2 C 3,3 C 0,6 C 80 % 1018,9 hPa 0,0 l/m 0 min 0 min 0 W/m 0,0 km/h (0 Bft) 100,00 %
25.04.2023 23:58 5,1 C 3,3 C 0,6 C 80 % 1018,9 hPa 0,0 l/m 0 min 0 min 0 W/m 0,0 km/h (0 Bft) 100,00 %
_ Min-Zeit 23:58 23:50 23:34 14:44 00:44 - - - - 06:34 05:00
Minimum _ 5,1 C 3,3 C 0,6 C 57 % 1010,6 hPa - - - - 0,0 km/h (0 Bft) 41,18 %
_ Max-Zeit 17:00 14:28 12:38 07:02 23:28 00:00 18:12 00:00 14:38 17:06 00:00
Maximum _ 12,5 C 18,3 C 10,0 C 93 % 1018,9 hPa 0,0 l/m 4 min 0 min 1034 W/m 41,8 km/h
O-NO (6 Bft)
100,00 %
Durchschnitt _ 8,2 C 8,6 C 4,5 C 76 % 1014,4 hPa #0,0 l/m #6:10 h #0 min. 288 W/m 12,7 km/h (3 Bft) 97,11 %
© 2023 W. Hausmann